Data for 06/09/2010

Time Sea-Level Adjusted Pressure Absolute Pressure Temperature Relative Humidity Dew Point Precipitation   
(mb) (inHg) (mb) (inHg) (C) (F) (%) (C) (F) (mm) (in)
00:01 1019 30.09 848 25.04 13 55.3 40 -0.1 31.8 13.32 0.524
00:02 1019 30.09 848 25.04 12.9 55.3 40 -0.4 31.2 13.31 0.524
00:03 1019 30.09 848 25.04 12.9 55.3 41 0.1 32.2 13.28 0.523
00:04 1019 30.09 848 25.04 12.9 55.3 39 -0.5 31 13.3 0.524
00:05 1019 30.09 848 25.04 13 55.4 40 -0.3 31.4 13.41 0.528
00:06 1019 30.09 848 25.04 13.1 55.5 40 -0.1 31.8 13.41 0.528
00:07 1019 30.09 848 25.04 13 55.5 41 0 32 13.41 0.528
00:08 1019 30.09 848 25.04 13 55.4 40 -0.1 31.8 13.41 0.528
00:09 1019 30.09 848 25.04 13 55.4 40 -0.1 31.7 13.38 0.527
00:10 1019 30.09 848 25.04 13 55.4 40 -0.2 31.7 13.36 0.526
00:11 1019 30.09 848 25.04 13 55.4 41 0.2 32.4 13.4 0.528
00:12 1019 30.09 848 25.04 12.9 55.3 41 0.1 32.1 13.29 0.523
00:13 1019 30.09 848 25.04 12.9 55.2 42 0.4 32.7 13.26 0.522
00:14 1019 30.09 848 25.04 12.8 55 42 0.4 32.6 13.13 0.517
00:15 1019 30.09 848 25.04 12.7 54.9 41 -0 32 13.14 0.517
00:16 1019 30.09 848 25.04 12.7 54.9 42 0.2 32.3 13.14 0.517
00:17 1019 30.09 848 25.04 12.7 54.9 42 0.3 32.6 13.15 0.518
00:18 1019 30.09 848 25.04 12.7 54.9 42 0.1 32.1 13.15 0.518
00:19 1019 30.09 848 25.04 12.8 55 42 0.1 32.2 13.17 0.519
00:20 1019 30.09 848 25.04 12.8 55 42 0.3 32.6 13.11 0.516
00:21 1019 30.09 848 25.04 12.6 54.7 43 0.6 33 13.01 0.512
00:22 1019 30.09 848 25.04 12.5 54.5 42 0.2 32.3 12.9 0.508
00:23 1019 30.09 848 25.04 12.6 54.6 43 0.4 32.8 12.93 0.509
00:24 1019 30.09 848 25.04 12.5 54.6 43 0.3 32.6 12.89 0.507
00:25 1019 30.09 848 25.04 12.5 54.6 43 0.5 32.9 12.91 0.508
00:26 1019 30.09 848 25.04 12.5 54.5 44 0.6 33.1 12.87 0.507
00:27 1019 30.09 848 25.04 12.5 54.5 42 -0 32 12.85 0.506
00:28 1019 30.09 848 25.04 12.5 54.6 43 0.2 32.4 12.92 0.509
00:29 1019 30.09 848 25.04 12.5 54.6 42 0.1 32.3 12.92 0.509
00:30 1019 30.09 848 25.04 12.6 54.6 43 0.5 32.9 12.94 0.509
00:31 1019 30.09 848 25.04 12.5 54.6 44 0.6 33.1 12.89 0.507
00:32 1019 30.09 848 25.04 12.4 54.4 43 0.2 32.3 12.84 0.506
00:33 1019 30.09 848 25.04 12.5 54.5 44 0.5 32.9 12.86 0.506
00:34 1019 30.09 848 25.04 12.5 54.4 44 0.5 32.9 12.78 0.503
00:35 1019 30.09 848 25.04 12.4 54.3 44 0.4 32.8 12.74 0.502
00:36 1019 30.09 848 25.04 12.4 54.4 43 0.4 32.6 12.77 0.503
00:37 1019 30.09 848 25.04 12.4 54.3 44 0.5 32.8 12.79 0.504
00:38 1019 30.09 848 25.04 12.4 54.3 45 0.7 33.3 12.82 0.505
00:39 1019 30.09 848 25.04 12.4 54.2 44 0.7 33.2 12.72 0.501
00:40 1019 30.09 848 25.04 12.3 54.1 44 0.5 32.8 12.63 0.497
00:41 1019 30.09 848 25.04 12.3 54.1 45 0.7 33.2 12.64 0.498
00:42 1019 30.09 848 25.04 12.3 54.1 45 0.6 33.1 12.63 0.497
00:43 1019 30.09 848 25.04 12.2 54 44 0.5 33 12.64 0.498
00:44 1019 30.09 848 25.04 12.3 54.1 44 0.5 32.8 12.69 0.5
00:45 1019 30.09 848 25.04 12.3 54.1 46 0.9 33.7 12.66 0.498
00:46 1019 30.09 848 25.04 12.3 54.1 45 0.6 33.1 12.61 0.496
00:47 1019 30.09 848 25.04 12.2 53.9 45 0.6 33 12.55 0.494
00:48 1019 30.09 848 25.04 12.2 53.9 45 0.6 33.1 12.55 0.494
00:49 1019 30.09 848 25.04 12.2 54 45 0.8 33.4 12.61 0.496
00:50 1019 30.09 848 25.04 12.2 53.9 45 0.6 33.1 12.53 0.493
00:51 1019 30.09 848 25.04 12.2 53.9 45 0.6 33.1 12.59 0.496
00:52 1019 30.09 848 25.04 12.2 53.9 45 0.8 33.4 12.54 0.494
00:53 1019 30.09 848 25.04 12.1 53.8 45 0.7 33.2 12.48 0.491
00:54 1019 30.09 848 25.04 12.1 53.8 45 0.5 32.9 12.5 0.492
00:55 1019 30.09 848 25.04 12.1 53.8 45 0.5 33 12.53 0.493
00:56 1019 30.09 848 25.04 12.2 53.9 45 0.7 33.3 12.5 0.492
00:57 1019 30.09 848 25.04 12.1 53.8 44 0.3 32.6 12.51 0.493
00:58 1019 30.09 848 25.04 12.2 53.9 45 0.8 33.4 12.57 0.495
00:59 1019 30.09 848 25.04 12.2 53.9 45 0.8 33.4 12.54 0.494
01:00 1019 30.09 848 25.04 12.1 53.7 47 1.1 34 12.44 0.49
01:01 1019 30.09 848 25.04 12 53.5 46 0.7 33.2 12.4 0.488
01:02 1019 30.09 848 25.04 12.1 53.7 46 0.7 33.3 12.48 0.491
01:03 1019 30.09 848 25.04 12.1 53.8 46 1 33.9 12.51 0.493
01:04 1018 30.06 848 25.04 12.1 53.8 46 0.9 33.6 12.54 0.494
01:05 1018 30.06 848 25.04 12.2 53.9 46 0.9 33.6 12.61 0.496
01:06 1018 30.06 848 25.04 12.2 53.9 46 0.9 33.6 12.53 0.493
01:07 1018 30.06 848 25.04 12.2 53.9 45 0.8 33.4 12.57 0.495
01:08 1018 30.06 848 25.04 12.2 54 46 1 33.7 12.61 0.496
01:09 1018 30.06 848 25.04 12.2 54 45 0.8 33.4 12.56 0.494
01:10 1018 30.06 848 25.04 12.2 54 46 1 33.8 12.61 0.496
01:11 1018 30.06 848 25.04 12.3 54.1 46 1 33.8 12.64 0.498
01:12 1018 30.06 848 25.04 12.3 54.1 45 0.7 33.2 12.62 0.497
01:13 1018 30.06 848 25.04 12.3 54.1 45 0.7 33.3 12.68 0.499
01:14 1018 30.06 848 25.04 12.3 54.1 45 0.9 33.6 12.73 0.501
01:15 1018 30.06 848 25.04 12.3 54.1 46 1.1 34 12.67 0.499
01:16 1018 30.06 848 25.04 12.2 54 46 1.1 34 12.59 0.496
01:17 1018 30.06 848 25.04 12.2 53.9 47 1.1 34 12.53 0.493
01:18 1018 30.06 848 25.04 12.1 53.8 47 1.2 34.2 12.53 0.493
01:19 1018 30.06 848 25.04 12.1 53.8 46 0.8 33.5 12.53 0.493
01:20 1018 30.06 848 25.04 12.2 54 46 0.9 33.6 12.6 0.496
01:21 1018 30.06 848 25.04 12.2 54 46 1.1 34.1 12.63 0.497
01:22 1018 30.06 848 25.04 12.3 54.1 45 0.8 33.5 12.65 0.498
01:23 1018 30.06 848 25.04 12.3 54.1 45 0.9 33.5 12.65 0.498
01:24 1018 30.06 848 25.04 12.2 54 46 1 33.8 12.61 0.496
01:25 1018 30.06 848 25.04 12.2 54 45 0.8 33.5 12.61 0.496
01:26 1018 30.06 848 25.04 12.2 53.9 46 1 33.8 12.6 0.496
01:27 1018 30.06 848 25.04 12.3 54.1 46 1.1 34 12.63 0.497
01:28 1018 30.06 848 25.04 12.2 54 46 0.9 33.7 12.59 0.496
01:29 1018 30.06 848 25.04 12.2 53.9 46 1 33.8 12.54 0.494
01:30 1018 30.06 848 25.04 12.1 53.8 46 1 33.8 12.51 0.493
01:31 1018 30.06 848 25.04 12.2 53.9 45 0.6 33.1 12.53 0.493
01:32 1018 30.06 848 25.04 12.2 53.9 46 0.9 33.7 12.57 0.495
01:33 1018 30.06 848 25.04 12.2 54 46 0.9 33.7 12.58 0.495
01:34 1018 30.06 848 25.04 12.3 54.1 45 0.6 33.1 12.61 0.496
01:35 1018 30.06 848 25.04 12.2 54 46 0.9 33.6 12.62 0.497
01:36 1018 30.06 848 25.04 12.2 54 45 0.7 33.3 12.6 0.496
01:37 1018 30.06 848 25.04 12.2 54 46 1 33.9 12.6 0.496
01:38 1018 30.06 847 25.01 12.2 54 47 1.2 34.1 12.57 0.495
01:39 1018 30.06 848 25.04 12.2 53.9 45 0.8 33.4 12.52 0.493
01:40 1018 30.06 848 25.04 12.2 54 45 0.7 33.3 12.61 0.496
01:41 1018 30.06 848 25.04 12.3 54.1 44 0.5 33 12.62 0.497
01:42 1018 30.06 848 25.04 12.3 54.1 45 0.8 33.4 12.65 0.498
01:43 1018 30.06 847 25.01 12.2 54 46 1 33.8 12.62 0.497
01:44 1018 30.06 847 25.01 12.2 54 45 0.8 33.4 12.58 0.495
01:45 1018 30.06 848 25.04 12.2 54 45 0.7 33.3 12.61 0.496
01:46 1018 30.06 848 25.04 12.2 53.9 44 0.5 32.8 12.57 0.495
01:47 1018 30.06 848 25.04 12.2 54 45 0.7 33.2 12.58 0.495
01:48 1018 30.06 847 25.01 12.2 54 45 0.7 33.3 12.59 0.496
01:49 1018 30.06 848 25.04 12.2 54 45 0.8 33.5 12.57 0.495
01:50 1018 30.06 848 25.04 12.2 54 45 0.8 33.4 12.57 0.495
01:51 1018 30.06 847 25.01 12.2 53.9 45 0.7 33.2 12.59 0.496
01:52 1018 30.06 847 25.01 12.2 54 45 0.8 33.4 12.61 0.496
01:53 1018 30.06 847 25.01 12.2 53.9 46 0.9 33.6 12.51 0.493
01:54 1018 30.06 848 25.04 12.1 53.8 46 0.8 33.4 12.47 0.491
01:55 1018 30.06 848 25.04 12.1 53.7 45 0.7 33.2 12.49 0.492
01:56 1018 30.06 848 25.04 12.1 53.8 46 1 33.8 12.47 0.491
01:57 1018 30.06 848 25.04 12.1 53.7 47 1.1 34 12.42 0.489
01:58 1018 30.06 848 25.04 12 53.6 45 0.6 33.1 12.38 0.487
01:59 1018 30.06 848 25.04 12.1 53.7 46 0.8 33.5 12.46 0.491
02:00 1018 30.06 848 25.04 12 53.6 46 0.8 33.4 12.42 0.489
02:01 1018 30.06 848 25.04 12 53.6 48 1.3 34.3 12.41 0.489
02:02 1018 30.06 848 25.04 11.9 53.4 46 0.7 33.2 12.29 0.484
02:03 1018 30.06 848 25.04 11.9 53.5 46 0.8 33.5 12.29 0.484
02:04 1018 30.06 848 25.04 12 53.6 47 1.1 34.1 12.37 0.487
02:05 1018 30.06 848 25.04 11.9 53.5 46 0.8 33.5 12.34 0.486
02:06 1018 30.06 848 25.04 11.9 53.5 46 0.8 33.5 12.28 0.483
02:07 1018 30.06 847 25.01 11.9 53.4 46 0.6 33.1 12.27 0.483
02:08 1018 30.06 847 25.01 11.9 53.4 47 0.9 33.6 12.32 0.485
02:09 1018 30.06 847 25.01 11.9 53.4 46 0.8 33.4 12.3 0.484
02:10 1018 30.06 847 25.01 11.9 53.4 47 0.9 33.7 12.28 0.483
02:11 1018 30.06 847 25.01 11.8 53.3 46 0.7 33.2 12.23 0.481
02:12 1018 30.06 847 25.01 11.9 53.4 46 0.8 33.4 12.32 0.485
02:13 1018 30.06 847 25.01 11.9 53.5 47 1 33.8 12.27 0.483
02:14 1018 30.06 847 25.01 11.9 53.4 47 0.9 33.7 12.26 0.483
02:15 1018 30.06 847 25.01 11.8 53.3 47 1 33.8 12.19 0.48
02:16 1018 30.06 847 25.01 11.7 53.1 47 0.9 33.7 12.11 0.477
02:17 1018 30.06 847 25.01 11.7 53.1 47 0.8 33.5 12.11 0.477
02:18 1018 30.06 847 25.01 11.7 53.1 48 1 33.8 12.14 0.478
02:19 1018 30.06 847 25.01 11.8 53.2 47 0.9 33.6 12.11 0.477
02:20 1018 30.06 847 25.01 11.7 53.1 47 0.9 33.6 12.1 0.476
02:21 1018 30.06 847 25.01 11.7 53.1 48 1 33.8 12.12 0.477
02:22 1018 30.06 847 25.01 11.7 53.1 47 1 33.8 12.13 0.478
02:23 1018 30.06 847 25.01 11.8 53.2 47 0.9 33.7 12.17 0.479
02:24 1018 30.06 847 25.01 11.8 53.3 47 0.9 33.6 12.2 0.48
02:25 1018 30.06 847 25.01 11.8 53.2 48 1.2 34.1 12.14 0.478
02:26 1018 30.06 847 25.01 11.7 53 48 1.1 34 12.05 0.474
02:27 1018 30.06 847 25.01 11.6 52.8 48 1 33.8 11.98 0.472
02:28 1018 30.06 847 25.01 11.6 52.9 47 0.8 33.5 12.02 0.473
02:29 1018 30.06 847 25.01 11.7 53 48 1 33.8 12.09 0.476
02:30 1018 30.06 847 25.01 11.7 53 48 1 33.8 12.07 0.475
02:31 1018 30.06 847 25.01 11.7 53 47 0.7 33.2 12.07 0.475
02:32 1018 30.06 847 25.01 11.7 53.1 47 0.8 33.4 12.13 0.478
02:33 1018 30.06 847 25.01 11.8 53.2 47 0.9 33.7 12.17 0.479
02:34 1018 30.06 847 25.01 11.8 53.2 48 1.1 34 12.11 0.477
02:35 1018 30.06 847 25.01 11.7 53 46 0.6 33.1 12.08 0.476
02:36 1018 30.06 847 25.01 11.7 53.1 47 0.9 33.7 12.18 0.48
02:37 1018 30.06 847 25.01 11.8 53.2 47 1 33.8 12.11 0.477
02:38 1018 30.06 847 25.01 11.7 53.1 48 1.2 34.2 12.06 0.475
02:39 1018 30.06 847 25.01 11.7 53 46 0.4 32.8 12.07 0.475
02:40 1018 30.06 847 25.01 11.8 53.2 47 1 33.7 12.2 0.48
02:41 1018 30.06 847 25.01 11.8 53.3 46 0.7 33.3 12.16 0.479
02:42 1018 30.06 847 25.01 11.8 53.3 45 0.5 32.9 12.26 0.483
02:43 1018 30.06 847 25.01 11.9 53.5 46 0.8 33.5 12.31 0.485
02:44 1018 30.06 847 25.01 11.9 53.4 46 0.9 33.5 12.3 0.484
02:45 1018 30.06 847 25.01 11.9 53.4 48 1.2 34.2 12.28 0.483
02:46 1018 30.06 847 25.01 11.8 53.3 47 0.8 33.5 12.23 0.481
02:47 1018 30.06 847 25.01 11.9 53.4 47 0.9 33.6 12.29 0.484
02:48 1018 30.06 847 25.01 11.9 53.5 46 0.8 33.4 12.31 0.485
02:49 1018 30.06 847 25.01 11.9 53.5 47 1.2 34.1 12.27 0.483
02:50 1018 30.06 847 25.01 11.9 53.3 47 1 33.8 12.25 0.482
02:51 1018 30.06 847 25.01 11.9 53.3 47 1.1 33.9 12.2 0.48
02:52 1018 30.06 847 25.01 11.8 53.2 47 1 33.7 12.16 0.479
02:53 1018 30.06 847 25.01 11.8 53.2 47 1 33.8 12.12 0.477
02:54 1018 30.06 847 25.01 11.7 53.1 47 1 33.7 12.11 0.477
02:55 1018 30.06 847 25.01 11.8 53.2 47 1 33.8 12.14 0.478
02:56 1018 30.06 847 25.01 11.7 53.1 48 1.1 34 12.14 0.478
02:57 1018 30.06 847 25.01 11.7 53.1 47 0.7 33.3 12.08 0.476
02:58 1018 30.06 847 25.01 11.7 53 48 1.2 34.2 12.09 0.476
02:59 1018 30.06 847 25.01 11.7 53.1 46 0.6 33.1 12.09 0.476
03:00 1018 30.06 847 25.01 11.7 53.1 48 1.1 34 12.12 0.477
03:01 1018 30.06 847 25.01 11.7 53 48 1.2 34.1 12.06 0.475
03:02 1018 30.06 847 25.01 11.7 53 47 0.8 33.5 12.03 0.474
03:03 1018 30.06 847 25.01 11.6 52.9 48 1 33.8 12.02 0.473
03:04 1018 30.06 847 25.01 11.6 52.9 48 1 33.8 11.99 0.472
03:05 1018 30.06 847 25.01 11.6 52.8 48 0.9 33.6 11.94 0.47
03:06 1018 30.06 847 25.01 11.6 52.8 48 1 33.7 11.91 0.469
03:07 1018 30.06 847 25.01 11.5 52.7 49 1.2 34.1 11.91 0.469
03:08 1018 30.06 847 25.01 11.5 52.6 48 1 33.8 11.88 0.468
03:09 1018 30.06 847 25.01 11.4 52.6 48 0.9 33.7 11.86 0.467
03:10 1018 30.06 847 25.01 11.5 52.6 48 1 33.9 11.86 0.467
03:11 1018 30.06 847 25.01 11.5 52.6 48 0.8 33.5 11.87 0.467
03:12 1018 30.06 847 25.01 11.5 52.7 48 1 33.8 11.9 0.469
03:13 1018 30.06 847 25.01 11.4 52.6 49 1.3 34.3 11.84 0.466
03:14 1018 30.06 847 25.01 11.4 52.6 49 1.1 34 11.78 0.464
03:15 1018 30.06 847 25.01 11.4 52.5 49 1.1 34 11.79 0.464
03:16 1018 30.06 847 25.01 11.4 52.5 48 0.9 33.7 11.81 0.465
03:17 1018 30.06 847 25.01 11.4 52.5 49 1.1 33.9 11.82 0.465
03:18 1018 30.06 847 25.01 11.4 52.6 48 0.7 33.3 11.79 0.464
03:19 1018 30.06 847 25.01 11.5 52.6 49 1.1 34 11.85 0.467
03:20 1018 30.06 847 25.01 11.5 52.6 48 0.9 33.6 11.85 0.467
03:21 1018 30.06 847 25.01 11.5 52.6 49 1.1 34 11.85 0.467
03:22 1018 30.06 847 25.01 11.4 52.6 48 1 33.8 11.89 0.468
03:23 1018 30.06 847 25.01 11.4 52.6 49 1.1 33.9 11.83 0.466
03:24 1018 30.06 847 25.01 11.4 52.6 49 1.3 34.3 11.8 0.465
03:25 1018 30.06 847 25.01 11.4 52.5 49 1.1 34.1 11.78 0.464
03:26 1018 30.06 847 25.01 11.4 52.5 49 1.1 33.9 11.75 0.463
03:27 1018 30.06 847 25.01 11.3 52.4 49 1.2 34.1 11.75 0.463
03:28 1017 30.03 847 25.01 11.3 52.4 50 1.2 34.1 11.64 0.458
03:29 1017 30.03 847 25.01 11.3 52.4 50 1.2 34.2 11.66 0.459
03:30 1017 30.03 847 25.01 11.3 52.3 49 1 33.8 11.71 0.461
03:31 1018 30.06 847 25.01 11.4 52.4 49 1.2 34.1 11.75 0.463
03:32 1017 30.03 847 25.01 11.4 52.5 48 0.9 33.7 11.73 0.462
03:33 1017 30.03 847 25.01 11.3 52.4 49 1 33.8 11.7 0.461
03:34 1017 30.03 847 25.01 11.3 52.4 50 1.4 34.5 11.7 0.461
03:35 1017 30.03 847 25.01 11.2 52.2 50 1.1 34.1 11.58 0.456
03:36 1017 30.03 847 25.01 11.2 52.2 49 1.1 33.9 11.6 0.457
03:37 1017 30.03 847 25.01 11.2 52.2 49 1.1 33.9 11.58 0.456
03:38 1017 30.03 847 25.01 11.3 52.3 49 1.1 34 11.66 0.459
03:39 1017 30.03 847 25.01 11.2 52.2 49 1 33.8 11.63 0.458
03:40 1017 30.03 847 25.01 11.3 52.3 49 0.9 33.6 11.66 0.459
03:41 1017 30.03 847 25.01 11.3 52.3 49 0.9 33.7 11.66 0.459
03:42 1017 30.03 847 25.01 11.3 52.3 49 1 33.7 11.65 0.459
03:43 1017 30.03 847 25.01 11.2 52.2 49 0.9 33.7 11.63 0.458
03:44 1017 30.03 847 25.01 11.2 52.2 49 1 33.8 11.65 0.459
03:45 1017 30.03 847 25.01 11.3 52.3 50 1.2 34.2 11.63 0.458
03:46 1017 30.03 847 25.01 11.2 52.2 49 0.9 33.6 11.59 0.456
03:47 1017 30.03 847 25.01 11.3 52.3 49 1 33.8 11.62 0.457
03:48 1017 30.03 846 24.98 11.3 52.3 48 0.8 33.5 11.64 0.458
03:49 1017 30.03 847 25.01 11.3 52.3 49 1.1 34 11.67 0.459
03:50 1017 30.03 847 25.01 11.3 52.3 50 1.3 34.3 11.62 0.457
03:51 1017 30.03 847 25.01 11.2 52.2 50 1.1 34 11.62 0.457
03:52 1017 30.03 847 25.01 11.2 52.2 50 1.1 34 11.58 0.456
03:53 1017 30.03 847 25.01 11.2 52.2 49 0.9 33.7 11.6 0.457
03:54 1017 30.03 847 25.01 11.3 52.3 50 1.3 34.3 11.61 0.457
03:55 1017 30.03 847 25.01 11.2 52.1 51 1.3 34.4 11.58 0.456
03:56 1017 30.03 847 25.01 11.2 52.1 50 1.2 34.2 11.56 0.455
03:57 1017 30.03 847 25.01 11.1 52 50 1.2 34.1 11.53 0.454
03:58 1017 30.03 847 25.01 11.1 52 50 1.1 34 11.52 0.454
03:59 1017 30.03 847 25.01 11.1 52 50 1 33.9 11.52 0.454
04:00 1017 30.03 847 25.01 11.1 52 52 1.6 34.9 11.49 0.452
04:01 1017 30.03 847 25.01 11 51.9 51 1.4 34.6 11.4 0.449
04:02 1017 30.03 847 25.01 11 51.8 51 1.4 34.5 11.37 0.448
04:03 1017 30.03 847 25.01 11 51.7 52 1.5 34.7 11.33 0.446
04:04 1017 30.03 847 25.01 10.9 51.6 51 1.2 34.2 11.33 0.446
04:05 1017 30.03 847 25.01 10.9 51.7 51 1.3 34.3 11.29 0.444
04:06 1017 30.03 847 25.01 10.9 51.7 52 1.4 34.6 11.32 0.446
04:07 1017 30.03 847 25.01 10.9 51.6 51 1.3 34.4 11.26 0.443
04:08 1017 30.03 847 25.01 10.9 51.6 52 1.4 34.5 11.27 0.444
04:09 1017 30.03 847 25.01 10.9 51.5 52 1.3 34.4 11.23 0.442
04:10 1017 30.03 847 25.01 10.8 51.5 52 1.5 34.6 11.24 0.443
04:11 1017 30.03 847 25.01 10.8 51.5 53 1.6 34.9 11.21 0.441
04:12 1017 30.03 847 25.01 10.8 51.4 52 1.4 34.6 11.18 0.44
04:13 1017 30.03 847 25.01 10.8 51.5 52 1.5 34.6 11.18 0.44
04:14 1017 30.03 847 25.01 10.8 51.5 53 1.6 34.9 11.18 0.44
04:15 1017 30.03 846 24.98 10.8 51.4 52 1.5 34.7 11.15 0.439
04:16 1017 30.03 846 24.98 10.8 51.4 52 1.3 34.4 11.19 0.441
04:17 1017 30.03 846 24.98 10.8 51.5 53 1.6 34.8 11.23 0.442
04:18 1017 30.03 846 24.98 10.8 51.5 52 1.5 34.6 11.21 0.441
04:19 1017 30.03 847 25.01 10.8 51.5 52 1.5 34.7 11.19 0.441
04:20 1017 30.03 846 24.98 10.8 51.4 52 1.5 34.6 11.16 0.439
04:21 1017 30.03 846 24.98 10.8 51.4 53 1.7 35 11.18 0.44
04:22 1017 30.03 846 24.98 10.8 51.4 53 1.7 35 11.15 0.439
04:23 1017 30.03 847 25.01 10.8 51.4 54 1.8 35.3 11.14 0.439
04:24 1017 30.03 846 24.98 10.7 51.3 55 2 35.6 11.09 0.437
04:25 1017 30.03 846 24.98 10.6 51.2 53 1.6 34.8 11.02 0.434
04:26 1017 30.03 846 24.98 10.6 51.1 54 1.8 35.2 11.02 0.434
04:27 1017 30.03 846 24.98 10.6 51.2 54 1.8 35.2 11.01 0.433
04:28 1017 30.03 846 24.98 10.6 51.1 54 1.7 35 11.03 0.434
04:29 1017 30.03 846 24.98 10.6 51.1 54 1.8 35.2 11.03 0.434
04:30 1017 30.03 846 24.98 10.6 51.1 54 1.8 35.2 11.02 0.434
04:31 1017 30.03 846 24.98 10.6 51.1 54 1.8 35.2 11.01 0.433
04:32 1017 30.03 846 24.98 10.6 51.1 55 1.9 35.4 11.02 0.434
04:33 1017 30.03 846 24.98 10.6 51 54 1.8 35.2 10.97 0.432
04:34 1017 30.03 846 24.98 10.6 51 55 2 35.5 10.93 0.43
04:35 1017 30.03 846 24.98 10.5 51 55 1.8 35.3 10.93 0.43
04:36 1017 30.03 846 24.98 10.5 51 54 1.7 35.1 10.94 0.431
04:37 1017 30.03 846 24.98 10.5 50.9 55 1.9 35.5 10.9 0.429
04:38 1017 30.03 846 24.98 10.4 50.8 55 1.9 35.4 10.8 0.425
04:39 1017 30.03 846 24.98 10.4 50.8 55 1.9 35.5 10.85 0.427
04:40 1017 30.03 846 24.98 10.5 50.8 55 1.9 35.4 10.84 0.427
04:41 1017 30.03 846 24.98 10.4 50.8 55 1.9 35.4 10.79 0.425
04:42 1017 30.03 846 24.98 10.4 50.8 55 1.9 35.4 10.83 0.426
04:43 1017 30.03 846 24.98 10.5 50.8 56 2.2 35.9 10.84 0.427
04:44 1017 30.03 846 24.98 10.4 50.8 54 1.6 34.9 10.83 0.426
04:45 1017 30.03 846 24.98 10.5 50.9 55 1.9 35.4 10.92 0.43
04:46 1017 30.03 846 24.98 10.5 51 54 1.8 35.2 10.89 0.429
04:47 1017 30.03 846 24.98 10.6 51 54 1.8 35.2 10.94 0.431
04:48 1017 30.03 846 24.98 10.6 51 53 1.6 34.8 10.93 0.43
04:49 1017 30.03 846 24.98 10.6 51 54 1.8 35.3 11.02 0.434
04:50 1017 30.03 846 24.98 10.6 51.2 54 1.7 35.1 11.02 0.434
04:51 1017 30.03 846 24.98 10.7 51.2 55 2 35.7 11.03 0.434
04:52 1017 30.03 846 24.98 10.6 51.2 55 2.1 35.8 11.01 0.433
04:53 1017 30.03 846 24.98 10.6 51.1 55 2 35.6 11.02 0.434
04:54 1017 30.03 846 24.98 10.7 51.2 55 1.9 35.4 11.02 0.434
04:55 1017 30.03 846 24.98 10.6 51.1 55 1.9 35.5 11.03 0.434
04:56 1017 30.03 846 24.98 10.7 51.2 55 2 35.5 11.05 0.435
04:57 1017 30.03 846 24.98 10.7 51.2 55 2.1 35.7 11.03 0.434
04:58 1017 30.03 846 24.98 10.6 51.2 56 2.2 35.9 10.97 0.432
04:59 1017 30.03 846 24.98 10.6 51.1 55 2 35.5 10.98 0.432
05:00 1017 30.03 846 24.98 10.6 51.1 55 1.9 35.5 11.01 0.433
05:01 1017 30.03 846 24.98 10.6 51 55 1.9 35.4 10.98 0.432
05:02 1017 30.03 846 24.98 10.6 51.1 56 2.3 36.2 10.98 0.432
05:03 1017 30.03 846 24.98 10.5 51 56 2.1 35.8 10.95 0.431
05:04 1017 30.03 846 24.98 10.6 51 56 2.2 35.9 10.97 0.432
05:05 1017 30.03 846 24.98 10.6 51.1 55 2.1 35.7 10.97 0.432
05:06 1017 30.03 846 24.98 10.6 51.1 55 2.1 35.7 11 0.433
05:07 1017 30.03 846 24.98 10.6 51.1 56 2.1 35.8 10.98 0.432
05:08 1017 30.03 846 24.98 10.6 51.1 56 2.2 36 10.98 0.432
05:09 1017 30.03 846 24.98 10.6 51.1 56 2.2 36 11.03 0.434
05:10 1017 30.03 846 24.98 10.6 51.1 56 2.3 36.1 11.01 0.433
05:11 1017 30.03 846 24.98 10.6 51.1 55 2 35.6 11.01 0.433
05:12 1017 30.03 846 24.98 10.6 51.2 55 2 35.7 11.03 0.434
05:13 1017 30.03 846 24.98 10.7 51.2 56 2.4 36.3 11.07 0.436
05:14 1017 30.03 846 24.98 10.6 51.1 55 2 35.7 11.03 0.434
05:15 1017 30.03 846 24.98 10.6 51.2 56 2.3 36.1 11.06 0.435
05:16 1017 30.03 846 24.98 10.6 51.2 55 2.1 35.8 11.03 0.434
05:17 1017 30.03 846 24.98 10.7 51.2 55 1.9 35.5 11.02 0.434
05:18 1017 30.03 846 24.98 10.6 51.2 56 2.3 36.1 11.06 0.435
05:19 1017 30.03 846 24.98 10.7 51.2 56 2.2 35.9 11.05 0.435
05:20 1017 30.03 846 24.98 10.6 51.2 56 2.3 36.2 11.06 0.435
05:21 1017 30.03 846 24.98 10.6 51.1 56 2.2 36 11.01 0.433
05:22 1017 30.03 846 24.98 10.7 51.3 55 2.1 35.8 11.03 0.434
05:23 1017 30.03 846 24.98 10.7 51.2 57 2.4 36.4 11.06 0.435
05:24 1017 30.03 846 24.98 10.6 51.1 57 2.4 36.3 11.01 0.433
05:25 1017 30.03 846 24.98 10.6 51.1 55 2.1 35.7 10.98 0.432
05:26 1017 30.03 846 24.98 10.6 51.1 56 2.2 35.9 11 0.433
05:27 1017 30.03 846 24.98 10.6 51.1 56 2.2 35.9 11.05 0.435
05:28 1017 30.03 846 24.98 10.6 51.1 57 2.5 36.6 11.02 0.434
05:29 1017 30.03 846 24.98 10.6 51 56 2.3 36.1 10.94 0.431
05:30 1017 30.03 846 24.98 10.6 51.1 56 2.3 36.2 11.02 0.434
05:31 1017 30.03 846 24.98 10.6 51.1 56 2.2 35.9 11.01 0.433
05:32 1017 30.03 846 24.98 10.6 51.1 56 2.3 36.1 11 0.433
05:33 1017 30.03 846 24.98 10.6 51 57 2.4 36.3 10.98 0.432
05:34 1017 30.03 846 24.98 10.6 51.1 56 2.2 36 10.95 0.431
05:35 1017 30.03 846 24.98 10.6 51 57 2.4 36.3 10.97 0.432
05:36 1017 30.03 846 24.98 10.6 51 57 2.5 36.5 10.94 0.431
05:37 1017 30.03 846 24.98 10.5 51 57 2.3 36.2 10.92 0.43
05:38 1017 30.03 846 24.98 10.5 51 56 2.2 35.9 10.93 0.43
05:39 1017 30.03 846 24.98 10.5 51 57 2.3 36.2 10.94 0.431
05:40 1017 30.03 846 24.98 10.6 51 56 2.3 36.2 10.98 0.432
05:41 1017 30.03 846 24.98 10.6 51.1 56 2.2 35.9 10.99 0.433
05:42 1017 30.03 846 24.98 10.6 51.1 56 2.2 36 11.05 0.435
05:43 1017 30.03 846 24.98 10.6 51.1 57 2.5 36.5 11.01 0.433
05:44 1017 30.03 846 24.98 10.6 51.1 58 2.7 36.8 10.97 0.432
05:45 1017 30.03 846 24.98 10.5 51 57 2.4 36.3 10.94 0.431
05:46 1017 30.03 846 24.98 10.5 51 58 2.7 36.8 10.9 0.429
05:47 1017 30.03 846 24.98 10.5 50.9 57 2.5 36.5 10.87 0.428
05:48 1017 30.03 846 24.98 10.5 50.8 57 2.3 36.2 10.87 0.428
05:49 1017 30.03 846 24.98 10.5 50.9 57 2.5 36.5 10.88 0.428
05:50 1017 30.03 846 24.98 10.5 50.9 57 2.3 36.2 10.89 0.429
05:51 1017 30.03 846 24.98 10.5 50.9 56 2.2 36 10.93 0.43
05:52 1017 30.03 846 24.98 10.6 51 57 2.4 36.4 10.98 0.432
05:53 1017 30.03 846 24.98 10.6 51 56 2.3 36.1 10.97 0.432
05:54 1017 30.03 846 24.98 10.6 51 57 2.4 36.4 10.99 0.433
05:55 1017 30.03 846 24.98 10.6 51 57 2.5 36.5 10.98 0.432
05:56 1017 30.03 846 24.98 10.6 51 56 2.1 35.8 10.93 0.43
05:57 1017 30.03 846 24.98 10.6 51.1 56 2.2 36 11.03 0.434
05:58 1017 30.03 846 24.98 10.7 51.2 56 2.3 36.1 11.09 0.437
05:59 1017 30.03 846 24.98 10.7 51.2 57 2.4 36.4 11.09 0.437
06:00 1017 30.03 846 24.98 10.7 51.2 57 2.6 36.7 11.07 0.436
06:01 1017 30.03 846 24.98 10.7 51.2 56 2.4 36.3 10.99 0.433
06:02 1017 30.03 846 24.98 10.6 51.1 56 2.3 36.1 10.97 0.432
06:03 1017 30.03 846 24.98 10.6 51.1 56 2.2 36 10.99 0.433
06:04 1017 30.03 846 24.98 10.7 51.2 57 2.6 36.6 11.02 0.434
06:05 1017 30.03 846 24.98 10.6 51 56 2.3 36.2 10.98 0.432
06:06 1017 30.03 846 24.98 10.6 51.1 55 2.1 35.7 11.03 0.434
06:07 1017 30.03 846 24.98 10.7 51.2 55 2.1 35.9 11.05 0.435
06:08 1017 30.03 846 24.98 10.7 51.2 56 2.4 36.3 11.11 0.437
06:09 1017 30.03 846 24.98 10.7 51.3 55 2.1 35.9 11.08 0.436
06:10 1017 30.03 846 24.98 10.7 51.3 56 2.3 36.1 11.13 0.438
06:11 1017 30.03 846 24.98 10.7 51.3 56 2.4 36.4 11.11 0.437
06:12 1017 30.03 846 24.98 10.8 51.4 55 2.2 36 11.14 0.439
06:13 1017 30.03 846 24.98 10.8 51.4 55 2.3 36.1 11.17 0.44
06:14 1017 30.03 846 24.98 10.8 51.4 56 2.5 36.5 11.21 0.441
06:15 1017 30.03 846 24.98 10.8 51.4 56 2.5 36.5 11.14 0.439
06:16 1017 30.03 846 24.98 10.7 51.2 56 2.3 36.1 11.1 0.437
06:17 1017 30.03 846 24.98 10.7 51.3 57 2.5 36.5 11.11 0.437
06:18 1017 30.03 846 24.98 10.7 51.3 56 2.4 36.3 11.08 0.436
06:19 1017 30.03 846 24.98 10.7 51.2 56 2.3 36.1 11.05 0.435
06:20 1017 30.03 846 24.98 10.7 51.2 58 2.7 36.8 11.03 0.434
06:21 1017 30.03 846 24.98 10.6 51.1 58 2.7 36.9 11.02 0.434
06:22 1017 30.03 846 24.98 10.6 51 57 2.4 36.4 10.98 0.432
06:23 1017 30.03 846 24.98 10.6 51.1 56 2.3 36.2 10.98 0.432
06:24 1017 30.03 846 24.98 10.7 51.2 57 2.5 36.5 11.02 0.434
06:25 1017 30.03 846 24.98 10.6 51.2 56 2.3 36.2 11.06 0.435
06:26 1017 30.03 846 24.98 10.7 51.3 56 2.2 36 11.12 0.438
06:27 1017 30.03 846 24.98 10.8 51.4 55 2.1 35.9 11.2 0.441
06:28 1017 30.03 846 24.98 10.8 51.5 56 2.5 36.5 11.23 0.442
06:29 1017 30.03 846 24.98 10.8 51.5 55 2.2 36 11.22 0.442
06:30 1017 30.03 846 24.98 10.8 51.4 56 2.5 36.5 11.22 0.442
06:31 1017 30.03 846 24.98 10.8 51.5 55 2.3 36.1 11.2 0.441
06:32 1017 30.03 846 24.98 10.8 51.4 57 2.7 36.8 11.16 0.439
06:33 1017 30.03 846 24.98 10.7 51.3 56 2.4 36.3 11.11 0.437
06:34 1017 30.03 846 24.98 10.7 51.3 56 2.4 36.2 11.13 0.438
06:35 1016 30 846 24.98 10.8 51.4 56 2.3 36.1 11.16 0.439
06:36 1016 30 846 24.98 10.8 51.5 56 2.4 36.3 11.23 0.442
06:37 1016 30 846 24.98 10.8 51.4 56 2.3 36.2 11.22 0.442
06:38 1016 30 846 24.98 10.9 51.6 56 2.4 36.4 11.23 0.442
06:39 1016 30 846 24.98 10.8 51.5 56 2.5 36.6 11.23 0.442
06:40 1016 30 846 24.98 10.8 51.5 56 2.4 36.3 11.2 0.441
06:41 1016 30 846 24.98 10.8 51.5 55 2.3 36.1 11.18 0.44
06:42 1016 30 846 24.98 10.8 51.4 56 2.4 36.3 11.19 0.441
06:43 1016 30 846 24.98 10.8 51.4 57 2.7 36.9 11.15 0.439
06:44 1016 30 846 24.98 10.7 51.3 57 2.5 36.4 11.09 0.437
06:45 1016 30 846 24.98 10.7 51.3 57 2.7 36.8 11.11 0.437
06:46 1016 30 846 24.98 10.7 51.3 58 2.7 36.9 11.1 0.437
06:47 1016 30 846 24.98 10.7 51.2 57 2.5 36.6 11.1 0.437
06:48 1016 30 846 24.98 10.7 51.3 57 2.6 36.7 11.13 0.438
06:49 1016 30 845 24.95 10.8 51.4 56 2.5 36.5 11.16 0.439
06:50 1016 30 845 24.95 10.8 51.4 57 2.6 36.7 11.21 0.441
06:51 1016 30 845 24.95 10.8 51.5 57 2.6 36.8 11.22 0.442
06:52 1016 30 845 24.95 10.8 51.5 56 2.5 36.4 11.24 0.443
06:53 1016 30 845 24.95 10.8 51.4 57 2.6 36.6 11.2 0.441
06:54 1016 30 845 24.95 10.8 51.5 56 2.4 36.2 11.24 0.443
06:55 1016 30 845 24.95 10.9 51.5 56 2.6 36.6 11.27 0.444
06:56 1016 30 845 24.95 10.9 51.6 56 2.6 36.7 11.29 0.444
06:57 1016 30 845 24.95 10.9 51.6 56 2.5 36.5 11.28 0.444
06:58 1016 30 845 24.95 10.9 51.7 56 2.7 36.8 11.29 0.444
06:59 1016 30 845 24.95 10.9 51.6 57 2.7 36.9 11.33 0.446
07:00 1016 30 845 24.95 10.9 51.6 56 2.6 36.6 11.31 0.445
07:01 1016 30 845 24.95 10.9 51.7 57 2.7 36.8 11.27 0.444
07:02 1016 30 845 24.95 10.9 51.7 57 2.7 36.8 11.31 0.445
07:03 1016 30 845 24.95 10.9 51.6 56 2.5 36.6 11.27 0.444
07:04 1016 30 845 24.95 10.9 51.6 57 2.7 36.9 11.33 0.446
07:05 1016 30 845 24.95 10.9 51.6 56 2.6 36.7 11.29 0.444
07:06 1016 30 845 24.95 10.9 51.5 58 2.9 37.1 11.28 0.444
07:07 1016 30 845 24.95 10.9 51.6 57 2.8 37 11.26 0.443
07:08 1016 30 845 24.95 10.9 51.6 57 2.8 37 11.27 0.444
07:09 1016 30 845 24.95 10.9 51.6 57 2.7 36.8 11.24 0.443
07:10 1016 30 845 24.95 10.8 51.5 58 2.9 37.3 11.22 0.442
07:11 1016 30 845 24.95 10.8 51.5 58 3 37.3 11.2 0.441
07:12 1016 30 845 24.95 10.8 51.4 58 2.8 37.1 11.16 0.439
07:13 1016 30 845 24.95 10.8 51.4 58 3 37.4 11.17 0.44
07:14 1016 30 845 24.95 10.8 51.5 59 3.2 37.8 11.23 0.442
07:15 1016 30 845 24.95 10.8 51.5 59 3.2 37.7 11.28 0.444
07:16 1016 30 845 24.95 10.9 51.6 58 3 37.3 11.26 0.443
07:17 1016 30 845 24.95 10.9 51.6 59 3.1 37.6 11.28 0.444
07:18 1016 30 845 24.95 10.9 51.6 57 2.8 37 11.31 0.445
07:19 1016 30 845 24.95 11 51.7 57 2.8 37.1 11.34 0.446
07:20 1016 30 845 24.95 11 51.8 59 3.3 37.9 11.37 0.448
07:21 1016 30 845 24.95 11 51.7 57 2.8 37.1 11.33 0.446
07:22 1016 30 845 24.95 11 51.8 57 3 37.3 11.37 0.448
07:23 1016 30 845 24.95 11.1 51.9 57 2.9 37.3 11.44 0.45
07:24 1016 30 845 24.95 11.1 52 57 2.9 37.3 11.49 0.452
07:25 1016 30 845 24.95 11.1 52 57 3 37.4 11.5 0.453
07:26 1016 30 845 24.95 11.1 52 58 3.2 37.8 11.52 0.454
07:27 1015 29.97 845 24.95 11.1 52 57 3 37.4 11.55 0.455
07:28 1015 29.97 845 24.95 11.1 52 57 2.9 37.3 11.57 0.456
07:29 1015 29.97 845 24.95 11.2 52.1 57 2.9 37.3 11.61 0.457
07:30 1015 29.97 845 24.95 11.2 52.2 56 2.9 37.2 11.67 0.459
07:31 1015 29.97 845 24.95 11.3 52.4 57 3.1 37.5 11.73 0.462
07:32 1015 29.97 845 24.95 11.4 52.4 56 2.9 37.3 11.74 0.462
07:33 1015 29.97 845 24.95 11.4 52.5 57 3.2 37.7 11.8 0.465
07:34 1015 29.97 845 24.95 11.4 52.4 56 3 37.4 11.8 0.465
07:35 1015 29.97 845 24.95 11.4 52.5 56 3 37.3 11.78 0.464
07:36 1015 29.97 845 24.95 11.4 52.5 56 2.9 37.2 11.76 0.463
07:37 1015 29.97 845 24.95 11.4 52.5 57 3.1 37.6 11.75 0.463
07:38 1015 29.97 844 24.92 11.4 52.4 57 3.1 37.6 11.75 0.463
07:39 1015 29.97 844 24.92 11.4 52.4 55 2.8 37 11.75 0.463
07:40 1015 29.97 844 24.92 11.4 52.5 56 3 37.3 11.78 0.464
07:41 1015 29.97 844 24.92 11.4 52.5 56 2.9 37.3 11.81 0.465
07:42 1015 29.97 844 24.92 11.5 52.6 57 3.4 38.1 11.87 0.467
07:43 1015 29.97 844 24.92 11.5 52.6 57 3.3 37.9 11.84 0.466
07:44 1015 29.97 844 24.92 11.5 52.6 57 3.2 37.7 11.84 0.466
07:45 1015 29.97 844 24.92 11.5 52.6 56 3.1 37.5 11.84 0.466
07:46 1015 29.97 844 24.92 11.4 52.6 56 3 37.4 11.84 0.466
07:47 1015 29.97 844 24.92 11.5 52.7 57 3.3 37.9 11.88 0.468
07:48 1015 29.97 844 24.92 11.5 52.6 57 3.2 37.8 11.86 0.467
07:49 1015 29.97 844 24.92 11.5 52.7 55 2.8 37 11.89 0.468
07:50 1015 29.97 844 24.92 11.6 52.8 57 3.5 38.2 11.96 0.471
07:51 1015 29.97 844 24.92 11.6 52.8 56 3.2 37.8 12 0.472
07:52 1015 29.97 844 24.92 11.6 52.9 56 3.1 37.6 11.96 0.471
07:53 1015 29.97 844 24.92 11.6 52.9 56 3.1 37.6 11.97 0.471
07:54 1015 29.97 844 24.92 11.6 52.9 56 3.2 37.8 12.02 0.473
07:55 1015 29.97 844 24.92 11.6 52.9 55 3 37.4 12.02 0.473
07:56 1015 29.97 844 24.92 11.6 53 56 3.1 37.6 12.05 0.474
07:57 1015 29.97 844 24.92 11.7 53 56 3.3 37.9 12.06 0.475
07:58 1015 29.97 844 24.92 11.7 53 54 2.8 37 12.07 0.475
07:59 1015 29.97 844 24.92 11.7 53 55 3 37.5 12.1 0.476
08:00 1015 29.97 844 24.92 11.7 53.1 56 3.4 38.1 12.07 0.475
08:01 1015 29.97 844 24.92 11.7 53.1 58 3.8 38.8 12.1 0.476
08:02 1015 29.97 844 24.92 11.7 53.1 57 3.5 38.3 12.12 0.477
08:03 1015 29.97 844 24.92 11.8 53.2 57 3.5 38.2 12.16 0.479
08:04 1015 29.97 844 24.92 11.8 53.2 58 3.9 39 12.17 0.479
08:05 1015 29.97 844 24.92 11.8 53.3 56 3.5 38.2 12.22 0.481
08:06 1015 29.97 844 24.92 11.8 53.3 57 3.7 38.7 12.28 0.483
08:07 1015 29.97 844 24.92 11.9 53.4 57 3.7 38.7 12.31 0.485
08:08 1015 29.97 844 24.92 11.9 53.4 57 3.8 38.9 12.32 0.485
08:09 1015 29.97 844 24.92 11.9 53.5 56 3.5 38.3 12.35 0.486
08:10 1015 29.97 844 24.92 11.9 53.5 55 3.3 37.9 12.32 0.485
08:11 1015 29.97 844 24.92 12 53.5 57 3.8 38.8 12.35 0.486
08:12 1015 29.97 844 24.92 12 53.5 55 3.4 38.1 12.35 0.486
08:13 1015 29.97 844 24.92 12 53.5 58 4 39.2 12.36 0.487
08:14 1015 29.97 844 24.92 12 53.5 57 3.7 38.6 12.32 0.485
08:15 1015 29.97 844 24.92 12 53.6 57 3.7 38.7 12.35 0.486
08:16 1015 29.97 844 24.92 12 53.6 57 3.9 39 12.35 0.486
08:17 1015 29.97 844 24.92 12 53.5 58 4 39.3 12.35 0.486
08:18 1015 29.97 844 24.92 12 53.5 56 3.6 38.5 12.32 0.485
08:19 1015 29.97 844 24.92 12 53.5 59 4.3 39.7 12.33 0.485
08:20 1015 29.97 844 24.92 11.9 53.5 55 3.4 38 12.31 0.485
08:21 1015 29.97 844 24.92 11.9 53.5 58 3.9 39 12.3 0.484
08:22 1015 29.97 844 24.92 11.9 53.4 57 3.8 38.8 12.28 0.483
08:23 1015 29.97 844 24.92 11.9 53.4 56 3.6 38.4 12.27 0.483
08:24 1015 29.97 844 24.92 11.9 53.4 58 3.9 39 12.27 0.483
08:25 1015 29.97 844 24.92 11.9 53.4 56 3.5 38.2 12.25 0.482
08:26 1015 29.97 844 24.92 11.9 53.3 56 3.4 38.1 12.24 0.482
08:27 1015 29.97 844 24.92 11.8 53.2 56 3.4 38.2 12.18 0.48
08:28 1015 29.97 844 24.92 11.8 53.2 57 3.5 38.2 12.13 0.478
08:29 1015 29.97 844 24.92 11.7 53.1 56 3.2 37.7 12.1 0.476
08:30 1015 29.97 844 24.92 11.8 53.2 54 2.8 37 12.15 0.478
08:31 1015 29.97 844 24.92 11.8 53.2 56 3.2 37.8 12.17 0.479
08:32 1015 29.97 844 24.92 11.7 53.1 56 3.2 37.8 12.13 0.478
08:33 1015 29.97 844 24.92 11.7 53.1 57 3.7 38.6 12.13 0.478
08:34 1015 29.97 844 24.92 11.8 53.2 55 3.1 37.6 12.17 0.479
08:35 1015 29.97 844 24.92 11.8 53.3 58 3.8 38.9 12.19 0.48
08:36 1015 29.97 844 24.92 11.8 53.3 58 3.8 38.9 12.22 0.481
08:37 1015 29.97 844 24.92 11.8 53.2 57 3.7 38.6 12.16 0.479
08:38 1015 29.97 844 24.92 11.8 53.3 57 3.6 38.4 12.19 0.48
08:39 1015 29.97 844 24.92 11.9 53.3 57 3.7 38.7 12.24 0.482
08:40 1015 29.97 844 24.92 11.8 53.3 57 3.7 38.6 12.22 0.481
08:41 1015 29.97 844 24.92 11.9 53.3 57 3.7 38.6 12.26 0.483
08:42 1015 29.97 844 24.92 11.9 53.4 56 3.4 38.1 12.28 0.483
08:43 1015 29.97 844 24.92 11.9 53.5 58 4 39.2 12.31 0.485
08:44 1015 29.97 844 24.92 12 53.6 56 3.6 38.6 12.37 0.487
08:45 1015 29.97 844 24.92 12 53.6 57 3.7 38.7 12.41 0.489
08:46 1015 29.97 844 24.92 12.1 53.8 56 3.6 38.5 12.5 0.492
08:47 1015 29.97 844 24.92 12.2 53.9 56 3.8 38.8 12.55 0.494
08:48 1015 29.97 844 24.92 12.2 54 56 3.8 38.8 12.58 0.495
08:49 1015 29.97 844 24.92 12.3 54.1 56 3.7 38.6 12.66 0.498
08:50 1015 29.97 844 24.92 12.3 54.2 55 3.6 38.5 12.71 0.5
08:51 1015 29.97 844 24.92 12.4 54.3 53 3 37.5 12.76 0.502
08:52 1015 29.97 844 24.92 12.4 54.3 53 3.2 37.7 12.78 0.503
08:53 1015 29.97 844 24.92 12.4 54.4 54 3.5 38.3 12.82 0.505
08:54 1015 29.97 844 24.92 12.5 54.4 54 3.4 38.1 12.86 0.506
08:55 1015 29.97 844 24.92 12.5 54.4 55 3.7 38.6 12.86 0.506
08:56 1015 29.97 844 24.92 12.5 54.5 55 3.7 38.7 12.89 0.507
08:57 1015 29.97 844 24.92 12.6 54.6 55 3.8 38.9 12.95 0.51
08:58 1015 29.97 844 24.92 12.6 54.6 56 4.1 39.3 12.96 0.51
08:59 1015 29.97 844 24.92 12.7 54.8 53 3.4 38.1 13.04 0.513
09:00 1015 29.97 844 24.92 12.7 54.9 52 3.2 37.7 13.13 0.517
09:01 1015 29.97 844 24.92 12.8 55 53 3.5 38.3 13.15 0.518
09:02 1015 29.97 844 24.92 12.8 55.1 55 3.9 39.1 13.19 0.519
09:03 1015 29.97 844 24.92 12.9 55.1 53 3.5 38.3 13.2 0.52
09:04 1015 29.97 844 24.92 12.9 55.1 53 3.6 38.4 13.26 0.522
09:05 1015 29.97 844 24.92 13 55.3 54 4 39.1 13.34 0.525
09:06 1015 29.97 844 24.92 12.9 55.3 55 4.1 39.3 13.33 0.525
09:07 1015 29.97 844 24.92 12.9 55.2 53 3.7 38.6 13.32 0.524
09:08 1015 29.97 844 24.92 12.9 55.3 54 3.8 38.9 13.32 0.524
09:09 1015 29.97 844 24.92 12.9 55.3 53 3.6 38.4 13.36 0.526
09:10 1015 29.97 844 24.92 13 55.3 52 3.5 38.4 13.41 0.528
09:11 1015 29.97 844 24.92 13 55.4 53 3.8 38.9 13.42 0.528
09:12 1015 29.97 844 24.92 13 55.4 54 3.9 39.1 13.45 0.53
09:13 1015 29.97 844 24.92 13 55.5 54 3.9 39.1 13.41 0.528
09:14 1014 29.94 844 24.92 13 55.5 54 4.1 39.3 13.41 0.528
09:15 1015 29.97 844 24.92 13 55.5 53 3.7 38.7 13.43 0.529
09:16 1015 29.97 844 24.92 13 55.4 54 4 39.2 13.39 0.527
09:17 1014 29.94 844 24.92 13 55.3 53 3.7 38.6 13.36 0.526
09:18 1014 29.94 844 24.92 13 55.3 53 3.7 38.6 13.4 0.528
09:19 1014 29.94 844 24.92 13 55.4 52 3.3 38 13.39 0.527
09:20 1014 29.94 844 24.92 13 55.5 54 4 39.3 13.41 0.528
09:21 1014 29.94 844 24.92 13 55.4 53 3.7 38.7 13.42 0.528
09:22 1014 29.94 844 24.92 13 55.4 53 3.6 38.5 13.4 0.528
09:23 1014 29.94 844 24.92 13 55.5 54 4 39.2 13.42 0.528
09:24 1014 29.94 844 24.92 13 55.4 55 4.2 39.5 13.39 0.527
09:25 1014 29.94 844 24.92 13 55.3 54 3.9 38.9 13.34 0.525
09:26 1014 29.94 843 24.89 13 55.3 55 4.2 39.6 13.37 0.526
09:27 1014 29.94 843 24.89 13 55.4 54 4 39.2 13.31 0.524
09:28 1014 29.94 843 24.89 13 55.3 53 3.7 38.7 13.34 0.525
09:29 1014 29.94 843 24.89 13 55.4 56 4.4 40 13.39 0.527
09:30 1014 29.94 843 24.89 13 55.4 53 3.8 38.9 13.4 0.528
09:31 1014 29.94 843 24.89 13 55.4 55 4.3 39.8 13.35 0.526
09:32 1014 29.94 843 24.89 13 55.3 54 3.9 38.9 13.33 0.525
09:33 1014 29.94 843 24.89 13 55.3 53 3.8 38.8 13.34 0.525
09:34 1014 29.94 843 24.89 13 55.4 54 3.9 39 13.4 0.528
09:35 1014 29.94 843 24.89 13 55.4 53 3.7 38.7 13.37 0.526
09:36 1014 29.94 843 24.89 13 55.4 55 4.2 39.6 13.39 0.527
09:37 1014 29.94 843 24.89 13 55.4 54 4 39.2 13.35 0.526
09:38 1014 29.94 843 24.89 13 55.3 52 3.5 38.2 13.34 0.525
09:39 1014 29.94 843 24.89 13 55.4 54 4 39.2 13.37 0.526
09:40 1014 29.94 843 24.89 13 55.4 53 3.8 38.8 13.37 0.526
09:41 1014 29.94 843 24.89 13.1 55.5 52 3.6 38.4 13.45 0.53
09:42 1014 29.94 843 24.89 13.1 55.6 52 3.6 38.5 13.48 0.531
09:43 1014 29.94 843 24.89 13.2 55.7 52 3.7 38.7 13.55 0.533
09:44 1014 29.94 843 24.89 13.3 55.9 54 4.2 39.5 13.61 0.536
09:45 1014 29.94 843 24.89 13.3 55.9 53 3.8 38.9 13.64 0.537
09:46 1014 29.94 843 24.89 13.3 55.9 53 4.1 39.3 13.69 0.539
09:47 1014 29.94 843 24.89 13.3 55.9 52 3.8 38.8 13.67 0.538
09:48 1014 29.94 843 24.89 13.3 55.9 54 4.2 39.6 13.71 0.54
09:49 1014 29.94 843 24.89 13.3 56 52 3.6 38.5 13.73 0.541
09:50 1014 29.94 843 24.89 13.4 56.1 54 4.3 39.7 13.75 0.541
09:51 1014 29.94 843 24.89 13.4 56.2 51 3.4 38.2 13.78 0.543
09:52 1014 29.94 843 24.89 13.5 56.2 53 4.1 39.4 13.85 0.545
09:53 1014 29.94 843 24.89 13.5 56.2 53 4.1 39.4 13.89 0.547
09:54 1014 29.94 843 24.89 13.5 56.4 51 3.8 38.8 13.93 0.548
09:55 1014 29.94 843 24.89 13.6 56.4 54 4.5 40.1 13.98 0.55
09:56 1014 29.94 843 24.89 13.6 56.6 50 3.5 38.4 14.02 0.552
09:57 1014 29.94 843 24.89 13.7 56.6 51 3.9 39 14.09 0.555
09:58 1014 29.94 843 24.89 13.7 56.7 51 3.8 38.8 14.12 0.556
09:59 1014 29.94 843 24.89 13.8 56.8 51 3.9 39.1 14.16 0.557
10:00 1014 29.94 843 24.89 13.8 56.8 53 4.4 39.9 14.17 0.558
10:01 1014 29.94 843 24.89 13.8 56.9 54 4.7 40.5 14.14 0.557
10:02 1014 29.94 843 24.89 13.8 56.8 51 3.9 39 14.21 0.559
10:03 1014 29.94 843 24.89 13.8 56.9 54 4.6 40.4 14.2 0.559
10:04 1014 29.94 843 24.89 13.8 56.9 54 4.9 40.7 14.25 0.561
10:05 1014 29.94 843 24.89 13.9 57 53 4.4 39.9 14.26 0.561
10:06 1014 29.94 843 24.89 13.9 57 50 3.8 38.9 14.31 0.563
10:07 1014 29.94 843 24.89 14 57.2 52 4.3 39.7 14.44 0.569
10:08 1014 29.94 843 24.89 14.1 57.3 48 3.3 37.9 14.48 0.57
10:09 1014 29.94 843 24.89 14.2 57.5 52 4.6 40.3 14.55 0.573
10:10 1014 29.94 843 24.89 14.2 57.5 51 4.4 39.9 14.6 0.575
10:11 1014 29.94 843 24.89 14.2 57.6 52 4.7 40.4 14.61 0.575
10:12 1014 29.94 843 24.89 14.3 57.7 52 4.7 40.4 14.6 0.575
10:13 1014 29.94 843 24.89 14.2 57.6 53 4.9 40.8 14.58 0.574
10:14 1014 29.94 843 24.89 14.2 57.6 50 4.1 39.4 14.59 0.574
10:15 1014 29.94 843 24.89 14.2 57.6 50 4.2 39.5 14.62 0.576
10:16 1014 29.94 843 24.89 14.3 57.8 52 4.6 40.3 14.63 0.576
10:17 1014 29.94 843 24.89 14.3 57.8 53 4.9 40.8 14.69 0.578
10:18 1013 29.91 843 24.89 14.4 57.9 54 5.2 41.4 14.72 0.58
10:19 1013 29.91 843 24.89 14.4 57.9 51 4.4 40 14.74 0.58
10:20 1013 29.91 843 24.89 14.4 58 50 4.3 39.8 14.82 0.583
10:21 1013 29.91 843 24.89 14.5 58.1 51 4.6 40.3 14.84 0.584
10:22 1013 29.91 843 24.89 14.5 58.1 50 4.4 39.9 14.88 0.586
10:23 1013 29.91 843 24.89 14.5 58.2 49 4 39.2 14.9 0.587
10:24 1013 29.91 843 24.89 14.6 58.2 50 4.5 40.1 14.97 0.589
10:25 1013 29.91 843 24.89 14.6 58.3 48 3.8 38.8 15.01 0.591
10:26 1013 29.91 842 24.86 14.6 58.3 49 4.2 39.5 14.99 0.59
10:27 1013 29.91 842 24.86 14.7 58.4 51 4.6 40.3 15.02 0.591
10:28 1013 29.91 842 24.86 14.7 58.5 48 3.8 38.9 15.07 0.593
10:29 1013 29.91 842 24.86 14.8 58.6 51 4.9 40.9 15.15 0.596
10:30 1013 29.91 842 24.86 14.8 58.6 49 4.3 39.7 15.17 0.597
10:31 1013 29.91 842 24.86 14.9 58.7 48 3.9 39.1 15.21 0.599
10:32 1013 29.91 842 24.86 14.9 58.8 49 4.4 40 15.3 0.602
10:33 1013 29.91 842 24.86 15 58.9 48 4.2 39.5 15.34 0.604
10:34 1013 29.91 842 24.86 15.1 59.1 50 4.9 40.7 15.44 0.608
10:35 1013 29.91 842 24.86 15.1 59.2 49 4.5 40.1 15.52 0.611
10:36 1013 29.91 842 24.86 15.2 59.4 52 5.6 42.2 15.62 0.615
10:37 1013 29.91 842 24.86 15.3 59.5 44 3.2 37.8 15.65 0.616
10:38 1013 29.91 842 24.86 15.4 59.6 46 4 39.2 15.7 0.618
10:39 1013 29.91 842 24.86 15.4 59.7 48 4.4 40 15.7 0.618
10:40 1013 29.91 842 24.86 15.4 59.7 46 4.1 39.3 15.75 0.62
10:41 1013 29.91 842 24.86 15.4 59.7 48 4.4 39.9 15.78 0.621
10:42 1013 29.91 842 24.86 15.5 59.8 49 4.9 40.9 15.83 0.623
10:43 1013 29.91 842 24.86 15.5 59.9 47 4.5 40.1 15.88 0.625
10:44 1013 29.91 842 24.86 15.5 60 48 4.6 40.3 15.91 0.626
10:45 1013 29.91 842 24.86 15.6 60.1 50 5.2 41.3 15.94 0.628
10:46 1013 29.91 842 24.86 15.6 60.1 50 5.3 41.6 16 0.63
10:47 1013 29.91 842 24.86 15.6 60.1 50 5.2 41.4 15.97 0.629
10:48 1013 29.91 842 24.86 15.6 60.1 49 5.1 41.2 15.98 0.629
10:49 1013 29.91 842 24.86 15.6 60 52 5.8 42.4 15.92 0.627
10:50 1013 29.91 842 24.86 15.6 60 52 5.7 42.3 15.91 0.626
10:51 1013 29.91 842 24.86 15.6 60 49 5 41 15.89 0.626
10:52 1013 29.91 842 24.86 15.5 60 48 4.8 40.6 15.94 0.628
10:53 1013 29.91 842 24.86 15.6 60 50 5.3 41.5 15.87 0.625
10:54 1013 29.91 842 24.86 15.5 60 50 5.1 41.3 15.89 0.626
10:55 1013 29.91 842 24.86 15.6 60 50 5.2 41.4 15.87 0.625
10:56 1013 29.91 842 24.86 15.6 60 48 4.8 40.7 15.9 0.626
10:57 1013 29.91 842 24.86 15.6 60.1 47 4.5 40 15.99 0.63
10:58 1013 29.91 842 24.86 15.7 60.3 48 4.7 40.4 16.04 0.631
10:59 1013 29.91 842 24.86 15.7 60.2 49 5 40.9 16.06 0.632
11:00 1013 29.91 842 24.86 15.7 60.3 48 5 40.9 16.1 0.634
11:01 1013 29.91 842 24.86 15.8 60.4 51 5.7 42.3 16.09 0.633
11:02 1013 29.91 842 24.86 15.7 60.3 48 5 41 16.09 0.633
11:03 1013 29.91 842 24.86 15.7 60.3 46 4.1 39.4 16.07 0.633
11:04 1013 29.91 842 24.86 15.8 60.4 50 5.4 41.8 16.09 0.633
11:05 1013 29.91 842 24.86 15.8 60.4 48 4.9 40.8 16.09 0.633
11:06 1013 29.91 842 24.86 15.8 60.4 49 5.1 41.2 16.12 0.635
11:07 1013 29.91 842 24.86 15.8 60.4 48 4.8 40.6 16.13 0.635
11:08 1013 29.91 842 24.86 15.8 60.4 52 6.1 43 16.19 0.637
11:09 1013 29.91 842 24.86 15.8 60.5 46 4.2 39.6 16.21 0.638
11:10 1013 29.91 842 24.86 15.9 60.6 46 4.4 39.8 16.25 0.64
11:11 1013 29.91 842 24.86 16 60.7 44 3.9 39.1 16.36 0.644
11:12 1013 29.91 842 24.86 16 60.8 49 5.4 41.7 16.41 0.646
11:13 1013 29.91 842 24.86 16.1 61 49 5.6 42 16.51 0.65
11:14 1013 29.91 842 24.86 16.2 61.2 45 4.5 40.1 16.58 0.653
11:15 1013 29.91 842 24.86 16.3 61.3 46 4.7 40.5 16.63 0.655
11:16 1013 29.91 842 24.86 16.3 61.3 46 4.8 40.7 16.63 0.655
11:17 1013 29.91 842 24.86 16.3 61.4 49 5.5 42 16.67 0.656
11:18 1013 29.91 842 24.86 16.3 61.4 47 5 41 16.69 0.657
11:19 1013 29.91 842 24.86 16.3 61.4 46 4.8 40.7 16.64 0.655
11:20 1013 29.91 842 24.86 16.3 61.3 50 5.8 42.4 16.61 0.654
11:21 1013 29.91 842 24.86 16.3 61.3 47 5.1 41.1 16.58 0.653
11:22 1013 29.91 842 24.86 16.2 61.2 48 5.2 41.4 16.6 0.654
11:23 1013 29.91 842 24.86 16.3 61.3 50 5.8 42.4 16.58 0.653
11:24 1013 29.91 842 24.86 16.3 61.3 51 6.3 43.3 16.61 0.654
11:25 1013 29.91 842 24.86 16.3 61.4 48 5.5 42 16.69 0.657
11:26 1013 29.91 842 24.86 16.4 61.5 51 6.3 43.4 16.8 0.661
11:27 1013 29.91 842 24.86 16.6 61.8 49 5.9 42.7 16.97 0.668
11:28 1013 29.91 842 24.86 16.7 62 44 4.6 40.3 17.06 0.672
11:29 1013 29.91 842 24.86 16.8 62.2 47 5.4 41.7 17.11 0.674
11:30 1013 29.91 842 24.86 16.7 62.1 45 5 41 17.07 0.672
11:31 1012 29.88 842 24.86 16.7 62.1 45 4.9 40.8 17.03 0.67
11:32 1012 29.88 842 24.86 16.7 62 45 4.9 40.7 17.06 0.672
11:33 1012 29.88 842 24.86 16.8 62.2 46 5.2 41.4 17.09 0.673
11:34 1012 29.88 842 24.86 16.9 62.3 49 6.2 43.1 17.24 0.679
11:35 1013 29.91 842 24.86 17 62.7 47 5.8 42.4 17.43 0.686
11:36 1013 29.91 842 24.86 17.2 62.9 49 6.6 43.9 17.5 0.689
11:37 1013 29.91 842 24.86 17.3 63.1 46 5.6 42 17.59 0.693
11:38 1012 29.88 842 24.86 17.2 63 48 6.4 43.4 17.58 0.692
11:39 1012 29.88 842 24.86 17.2 63 47 6 42.8 17.53 0.69
11:40 1012 29.88 842 24.86 17.1 62.8 47 5.9 42.6 17.48 0.688
11:41 1012 29.88 842 24.86 17.2 62.9 45 5.4 41.6 17.49 0.689
11:42 1012 29.88 842 24.86 17.2 62.9 46 5.6 42 17.47 0.688
11:43 1012 29.88 842 24.86 17.2 62.9 47 5.8 42.4 17.55 0.691
11:44 1012 29.88 842 24.86 17.2 63 46 5.6 42.1 17.51 0.689
11:45 1012 29.88 842 24.86 17.2 62.9 46 5.7 42.2 17.53 0.69
11:46 1012 29.88 842 24.86 17.3 63.1 47 5.9 42.7 17.61 0.693
11:47 1012 29.88 842 24.86 17.4 63.2 47 6 42.8 17.67 0.696
11:48 1012 29.88 842 24.86 17.4 63.4 45 5.5 41.8 17.78 0.7
11:49 1012 29.88 842 24.86 17.5 63.4 49 6.8 44.2 17.84 0.702
11:50 1012 29.88 842 24.86 17.5 63.4 46 6 42.7 17.85 0.703
11:51 1012 29.88 841 24.83 17.5 63.4 46 5.9 42.7 17.8 0.701
11:52 1012 29.88 841 24.83 17.4 63.3 46 5.9 42.6 17.73 0.698
11:53 1012 29.88 841 24.83 17.3 63.2 45 5.5 41.8 17.66 0.695
11:54 1012 29.88 841 24.83 17.3 63.1 46 5.6 42.2 17.62 0.694
11:55 1012 29.88 841 24.83 17.3 63.2 45 5.5 41.9 17.66 0.695
11:56 1012 29.88 841 24.83 17.4 63.4 45 5.6 42.1 17.76 0.699
11:57 1012 29.88 841 24.83 17.4 63.4 46 5.7 42.3 17.79 0.7
11:58 1012 29.88 841 24.83 17.5 63.4 46 5.8 42.4 17.76 0.699
11:59 1012 29.88 841 24.83 17.4 63.4 46 5.8 42.4 17.75 0.699
12:00 1012 29.88 841 24.83 17.5 63.4 47 6.2 43.2 17.81 0.701
12:01 1012 29.88 841 24.83 17.5 63.5 45 5.4 41.8 17.84 0.702
12:02 1012 29.88 841 24.83 17.5 63.6 46 6 42.8 17.9 0.705
12:03 1012 29.88 841 24.83 17.6 63.7 50 7.2 45 18 0.709
12:04 1012 29.88 841 24.83 17.7 63.9 44 5.4 41.7 18.12 0.713
12:05 1012 29.88 841 24.83 17.9 64.2 48 7 44.5 18.22 0.717
12:06 1012 29.88 841 24.83 17.9 64.3 49 7.3 45.1 18.3 0.72
12:07 1012 29.88 841 24.83 18 64.4 48 6.8 44.3 18.37 0.723
12:08 1012 29.88 841 24.83 18.1 64.5 44 5.7 42.3 18.38 0.724
12:09 1012 29.88 841 24.83 18.1 64.5 45 6.2 43.1 18.35 0.722
12:10 1012 29.88 841 24.83 18.1 64.7 55 9 48.2 18.55 0.73
12:11 1012 29.88 841 24.83 18.4 65 45 6.5 43.6 18.73 0.737
12:12 1012 29.88 841 24.83 18.4 65.1 45 6.4 43.5 18.7 0.736
12:13 1012 29.88 841 24.83 18.4 65 39 4.4 39.9 18.69 0.736
12:14 1012 29.88 841 24.83 18.4 65.1 46 6.6 43.8 18.69 0.736
12:15 1012 29.88 841 24.83 18.4 65.1 45 6.3 43.3 18.77 0.739
12:16 1012 29.88 841 24.83 18.5 65.4 48 7.5 45.5 18.97 0.747
12:17 1012 29.88 841 24.83 18.8 65.8 44 6.3 43.3 19.16 0.754
12:18 1012 29.88 841 24.83 18.9 66 43 6.3 43.3 19.25 0.758
12:19 1012 29.88 841 24.83 19 66.2 46 7.3 45.2 19.34 0.761
12:20 1012 29.88 841 24.83 19 66.2 45 7.1 44.8 19.38 0.763
12:21 1012 29.88 841 24.83 19.1 66.3 48 8 46.4 19.41 0.764
12:22 1012 29.88 841 24.83 19.2 66.6 49 8.4 47.1 19.66 0.774
12:23 1012 29.88 841 24.83 19.4 66.8 45 7.4 45.3 19.71 0.776
12:24 1012 29.88 841 24.83 19.3 66.8 42 6.2 43.2 19.63 0.773
12:25 1012 29.88 841 24.83 19.3 66.7 45 7.2 45 19.64 0.773
12:26 1012 29.88 841 24.83 19.3 66.8 45 7.1 44.8 19.66 0.774
12:27 1012 29.88 841 24.83 19.3 66.8 43 6.7 44 19.63 0.773
12:28 1012 29.88 841 24.83 19.3 66.7 44 6.9 44.4 19.59 0.771
12:29 1012 29.88 841 24.83 19.3 66.7 43 6.5 43.7 19.66 0.774
12:30 1012 29.88 841 24.83 19.3 66.8 40 5.5 41.9 19.73 0.777
12:31 1012 29.88 841 24.83 19.4 66.8 42 6.4 43.4 19.71 0.776
12:32 1012 29.88 841 24.83 19.4 66.9 41 5.8 42.4 19.76 0.778
12:33 1012 29.88 841 24.83 19.4 66.9 43 6.6 43.9 19.72 0.776
12:34 1012 29.88 841 24.83 19.3 66.8 39 5.2 41.4 19.69 0.775
12:35 1012 29.88 841 24.83 19.4 66.9 44 7.1 44.8 19.78 0.779
12:36 1012 29.88 841 24.83 19.6 67.3 49 8.7 47.6 19.99 0.787
12:37 1012 29.88 841 24.83 19.7 67.5 35 4.1 39.4 20.13 0.793
12:38 1012 29.88 841 24.83 19.8 67.7 46 8.1 46.5 20.29 0.799
12:39 1012 29.88 841 24.83 20.1 68.1 32 2.9 37.3 20.48 0.806
12:40 1012 29.88 841 24.83 20.1 68.1 38 5.6 42 20.43 0.804
12:41 1012 29.88 841 24.83 20 68 40 6.1 42.9 20.34 0.801
12:42 1012 29.88 841 24.83 20 68 45 8 46.3 20.31 0.8
12:43 1012 29.88 841 24.83 19.9 67.9 35 4.3 39.8 20.2 0.795
12:44 1012 29.88 841 24.83 20 68 46 8.1 46.6 20.34 0.801
12:45 1012 29.88 841 24.83 20.1 68.1 38 5.6 42.2 20.4 0.803
12:46 1012 29.88 841 24.83 20.1 68.2 31 2.7 36.8 20.47 0.806
12:47 1012 29.88 841 24.83 20.3 68.6 43 7.6 45.6 20.75 0.817
12:48 1012 29.88 841 24.83 20.6 69.1 42 7.4 45.4 21.08 0.83
12:49 1012 29.88 841 24.83 20.7 69.3 32 3.6 38.5 21.21 0.835
12:50 1012 29.88 841 24.83 20.9 69.6 39 6.8 44.2 21.3 0.839
12:51 1012 29.88 841 24.83 21.1 70 44 8.6 47.5 21.44 0.844
12:52 1012 29.88 841 24.83 21.1 69.9 32 3.8 38.8 21.3 0.839
12:53 1012 29.88 841 24.83 21 69.8 39 6.6 43.8 21.36 0.841
12:54 1012 29.88 841 24.83 20.9 69.5 42 7.7 45.9 21.37 0.841
12:55 1012 29.88 841 24.83 20.7 69.3 42 7.7 45.8 21.37 0.841
12:56 1012 29.88 841 24.83 20.6 69.2 42 7.4 45.2 21.28 0.838
12:57 1012 29.88 841 24.83 20.5 69 37 5.5 41.9 21.25 0.837
12:58 1012 29.88 841 24.83 20.4 68.8 45 8.2 46.7 21.12 0.831
12:59 1012 29.88 841 24.83 20.3 68.6 39 6.2 43.1 20.98 0.826
13:00 1012 29.88 841 24.83 20.2 68.3 45 8.1 46.5 20.79 0.819
13:01 1012 29.88 841 24.83 20.1 68.1 44 7.5 45.5 20.75 0.817
13:02 1012 29.88 841 24.83 20.2 68.3 36 4.6 40.3 20.79 0.819
13:03 1012 29.88 841 24.83 20.2 68.4 38 5.8 42.4 20.82 0.82
13:04 1012 29.88 841 24.83 20.4 68.7 36 5.2 41.3 20.91 0.823
13:05 1012 29.88 841 24.83 20.5 68.9 40 6.6 43.9 21.04 0.828
13:06 1012 29.88 841 24.83 20.7 69.3 41 7.1 44.8 21.29 0.838
13:07 1012 29.88 841 24.83 20.9 69.6 33 4.4 39.9 21.38 0.842
13:08 1012 29.88 841 24.83 21 69.7 42 7.8 46 21.45 0.844
13:09 1012 29.88 841 24.83 21.1 70 38 6.6 43.8 21.6 0.85
13:10 1012 29.88 841 24.83 21.2 70.1 39 6.9 44.3 21.65 0.852
13:11 1012 29.88 841 24.83 21.3 70.3 42 8 46.5 21.74 0.856
13:12 1012 29.88 841 24.83 21.3 70.3 41 7.7 45.8 21.79 0.858
13:13 1012 29.88 841 24.83 21.3 70.3 42 7.9 46.2 21.77 0.857
13:14 1012 29.88 841 24.83 21.3 70.3 44 8.6 47.4 21.7 0.854
13:15 1012 29.88 841 24.83 21.5 70.6 45 9.1 48.4 21.91 0.863
13:16 1012 29.88 841 24.83 21.6 70.8 41 8 46.4 22.03 0.867
13:17 1012 29.88 841 24.83 21.6 70.9 37 6.6 43.9 22.18 0.873
13:18 1012 29.88 841 24.83 21.7 71 38 6.8 44.2 22.17 0.873
13:19 1012 29.88 841 24.83 21.6 70.9 37 6.5 43.7 22.13 0.871
13:20 1012 29.88 841 24.83 21.5 70.7 31 3.8 38.8 22 0.866
13:21 1012 29.88 841 24.83 21.5 70.6 34 5 41 21.95 0.864
13:22 1012 29.88 841 24.83 21.6 70.8 45 9.3 48.7 22.05 0.868
13:23 1012 29.88 841 24.83 21.6 70.9 32 4.5 40 22.08 0.869
13:24 1012 29.88 841 24.83 21.6 70.9 41 7.8 46 22.06 0.869
13:25 1012 29.88 841 24.83 21.6 70.8 41 7.8 46.1 22.07 0.869
13:26 1011 29.85 841 24.83 21.5 70.8 43 8.4 47.2 22.02 0.867
13:27 1011 29.85 841 24.83 21.5 70.7 40 7.3 45.2 21.98 0.865
13:28 1011 29.85 841 24.83 21.6 70.8 43 8.6 47.5 21.93 0.863
13:29 1011 29.85 841 24.83 21.5 70.7 45 9.2 48.6 21.94 0.864
13:30 1011 29.85 841 24.83 21.5 70.6 40 7.5 45.6 21.91 0.863
13:31 1011 29.85 841 24.83 21.4 70.5 41 7.8 46.1 21.83 0.859
13:32 1011 29.85 841 24.83 21.3 70.3 43 8.4 47.1 21.73 0.856
13:33 1011 29.85 841 24.83 21.1 70 50 10.5 51 21.58 0.85
13:34 1011 29.85 841 24.83 20.9 69.7 37 6 42.9 21.4 0.843
13:35 1011 29.85 841 24.83 20.8 69.5 38 6 42.8 21.22 0.835
13:36 1011 29.85 841 24.83 20.7 69.3 40 6.8 44.2 21.18 0.834
13:37 1011 29.85 841 24.83 20.7 69.2 37 5.7 42.3 21 0.827
13:38 1011 29.85 841 24.83 20.7 69.2 39 6.2 43.2 21.02 0.828
13:39 1012 29.88 841 24.83 20.6 69.1 39 6.1 43.1 21.01 0.827
13:40 1012 29.88 841 24.83 20.6 69.1 43 7.7 45.9 21.01 0.827
13:41 1012 29.88 841 24.83 20.6 69 45 8.5 47.3 21.03 0.828
13:42 1011 29.85 841 24.83 20.5 68.9 38 5.8 42.5 20.99 0.826
13:43 1011 29.85 841 24.83 20.5 68.8 41 6.9 44.5 20.86 0.821
13:44 1011 29.85 841 24.83 20.5 68.8 42 7.2 45 20.91 0.823
13:45 1011 29.85 841 24.83 20.4 68.7 36 5.1 41.1 20.9 0.823
13:46 1011 29.85 841 24.83 20.4 68.7 43 7.4 45.3 20.8 0.819
13:47 1011 29.85 841 24.83 20.4 68.8 47 8.8 47.8 20.87 0.822
13:48 1011 29.85 841 24.83 20.4 68.8 47 8.9 48.1 20.97 0.826
13:49 1011 29.85 841 24.83 20.5 68.8 32 3.5 38.4 20.93 0.824
13:50 1011 29.85 841 24.83 20.6 69 38 6 42.8 20.95 0.825
13:51 1011 29.85 841 24.83 20.7 69.2 39 6.4 43.6 21.12 0.831
13:52 1011 29.85 841 24.83 20.8 69.4 48 9.5 49 21.28 0.838
13:53 1011 29.85 840 24.81 20.9 69.7 38 6.4 43.6 21.41 0.843
13:54 1011 29.85 841 24.83 21 69.9 42 7.8 46.1 21.49 0.846
13:55 1011 29.85 841 24.83 21.1 69.9 52 10.9 51.6 21.53 0.848
13:56 1011 29.85 840 24.81 21.1 69.9 35 5.3 41.5 21.58 0.85
13:57 1011 29.85 840 24.81 21.1 70 44 8.5 47.4 21.51 0.847
13:58 1011 29.85 840 24.81 21.2 70.2 41 7.6 45.7 21.65 0.852
13:59 1011 29.85 840 24.81 21.3 70.3 47 9.7 49.4 21.73 0.856
14:00 1011 29.85 840 24.81 21.4 70.4 52 11.2 52.2 21.8 0.858
14:01 1011 29.85 840 24.81 21.3 70.4 45 9 48.2 21.76 0.857
14:02 1011 29.85 840 24.81 21.2 70.2 42 8 46.5 21.64 0.852
14:03 1011 29.85 840 24.81 21.1 70 42 8 46.4 21.61 0.851
14:04 1011 29.85 840 24.81 21.1 70 47 9.7 49.4 21.52 0.847
14:05 1011 29.85 840 24.81 21 69.9 45 8.7 47.7 21.5 0.846
14:06 1011 29.85 840 24.81 21 69.7 43 8.1 46.6 21.38 0.842
14:07 1011 29.85 840 24.81 20.9 69.5 47 9.2 48.6 21.32 0.839
14:08 1011 29.85 840 24.81 20.8 69.5 42 7.7 45.9 21.21 0.835
14:09 1011 29.85 840 24.81 20.7 69.3 39 6.4 43.5 21.12 0.831
14:10 1011 29.85 840 24.81 20.7 69.2 42 7.6 45.6 21.04 0.828
14:11 1011 29.85 840 24.81 20.7 69.3 48 9.6 49.2 21.09 0.83
14:12 1011 29.85 840 24.81 20.7 69.2 51 10.3 50.5 21.08 0.83
14:13 1011 29.85 840 24.81 20.7 69.2 44 8.3 47 21.06 0.829
14:14 1011 29.85 840 24.81 20.6 69.1 52 10.7 51.2 21.03 0.828
14:15 1011 29.85 840 24.81 20.5 68.9 55 11.2 52.1 20.92 0.824
14:16 1011 29.85 840 24.81 20.4 68.8 53 10.7 51.2 20.81 0.819
14:17 1011 29.85 840 24.81 20.4 68.6 53 10.5 50.8 20.74 0.817
14:18 1011 29.85 840 24.81 20.4 68.7 45 8.2 46.8 20.83 0.82
14:19 1011 29.85 840 24.81 20.5 68.9 45 8.3 47 20.96 0.825
14:20 1011 29.85 840 24.81 20.8 69.4 44 8.2 46.7 21.13 0.832
14:21 1011 29.85 840 24.81 21 69.8 46 9 48.2 21.35 0.841
14:22 1011 29.85 840 24.81 21.1 70 50 10.5 50.9 21.5 0.846
14:23 1011 29.85 840 24.81 21.2 70.1 42 7.9 46.1 21.56 0.849
14:24 1011 29.85 840 24.81 21.4 70.5 52 11.2 52.1 21.86 0.861
14:25 1011 29.85 840 24.81 21.6 70.9 43 8.8 47.8 22.04 0.868
14:26 1011 29.85 840 24.81 21.6 70.9 47 9.9 49.9 22.03 0.867
14:27 1011 29.85 840 24.81 21.6 70.8 43 8.7 47.6 22.01 0.867
14:28 1011 29.85 840 24.81 21.4 70.5 44 8.9 48 21.88 0.861
14:29 1011 29.85 840 24.81 21.2 70.2 41 7.7 45.9 21.6 0.85
14:30 1011 29.85 840 24.81 21 69.7 51 10.6 51.1 21.38 0.842
14:31 1011 29.85 840 24.81 20.8 69.5 52 10.8 51.4 21.32 0.839
14:32 1011 29.85 840 24.81 20.7 69.2 49 9.8 49.6 21.11 0.831
14:33 1011 29.85 840 24.81 20.5 69 52 10.5 50.8 20.99 0.826
14:34 1011 29.85 840 24.81 20.5 68.8 50 9.8 49.7 20.89 0.822
14:35 1011 29.85 840 24.81 20.3 68.6 51 10 50.1 20.8 0.819
14:36 1011 29.85 840 24.81 20.3 68.6 53 10.6 51.2 20.78 0.818
14:37 1011 29.85 840 24.81 20.3 68.6 57 11.7 53 20.78 0.818
14:38 1011 29.85 840 24.81 20.3 68.6 55 11 51.9 20.75 0.817
14:39 1011 29.85 840 24.81 20.2 68.4 52 10.2 50.4 20.66 0.813
14:40 1011 29.85 840 24.81 20.2 68.3 45 8.1 46.6 20.61 0.811
14:41 1011 29.85 840 24.81 20.1 68.3 49 9.3 48.7 20.51 0.807
14:42 1011 29.85 840 24.81 20.2 68.3 51 9.8 49.6 20.52 0.808
14:43 1011 29.85 840 24.81 20.1 68.1 41 6.5 43.6 20.41 0.804
14:44 1011 29.85 840 24.81 20.2 68.3 47 8.6 47.4 20.51 0.807
14:45 1011 29.85 840 24.81 20.1 68.2 48 8.8 47.8 20.47 0.806
14:46 1011 29.85 840 24.81 20 68.1 53 10.2 50.4 20.46 0.806
14:47 1011 29.85 840 24.81 20.1 68.1 41 6.6 43.9 20.47 0.806
14:48 1011 29.85 840 24.81 20.1 68.2 49 9.2 48.5 20.46 0.806
14:49 1011 29.85 840 24.81 20.1 68.1 50 9.5 49.2 20.43 0.804
14:50 1011 29.85 840 24.81 20 67.9 50 9.3 48.7 20.33 0.8
14:51 1011 29.85 840 24.81 19.8 67.7 56 10.9 51.7 20.2 0.795
14:52 1011 29.85 840 24.81 19.7 67.4 52 9.7 49.4 20.08 0.791
14:53 1011 29.85 840 24.81 19.6 67.2 58 11.2 52.2 19.99 0.787
14:54 1011 29.85 840 24.81 19.4 67 55 10.2 50.3 19.82 0.78
14:55 1011 29.85 840 24.81 19.3 66.8 52 9.4 48.9 19.68 0.775
14:56 1011 29.85 840 24.81 19.2 66.5 54 9.8 49.7 19.54 0.769
14:57 1011 29.85 840 24.81 19.1 66.4 57 10.4 50.7 19.51 0.768
14:58 1011 29.85 840 24.81 19.1 66.3 55 10.1 50.1 19.46 0.766
14:59 1011 29.85 840 24.81 19 66.2 58 10.6 51.2 19.36 0.762
15:00 1011 29.85 840 24.81 19 66.2 59 10.9 51.6 19.36 0.762
15:01 1011 29.85 840 24.81 18.9 66 58 10.6 51 19.25 0.758
15:02 1011 29.85 840 24.81 18.9 65.9 56 10 50.1 19.24 0.757
15:03 1011 29.85 840 24.81 18.8 65.9 60 11 51.8 19.22 0.757
15:04 1011 29.85 840 24.81 18.7 65.7 60 10.9 51.5 19.12 0.753
15:05 1011 29.85 840 24.81 18.7 65.6 59 10.6 51.1 19.08 0.751
15:06 1011 29.85 840 24.81 18.7 65.6 56 9.9 49.8 19.01 0.748
15:07 1011 29.85 840 24.81 18.6 65.6 56 9.8 49.7 18.97 0.747
15:08 1011 29.85 840 24.81 18.7 65.6 58 10.5 50.8 18.97 0.747
15:09 1011 29.85 840 24.81 18.7 65.6 61 11 51.7 19.01 0.748
15:10 1011 29.85 840 24.81 18.7 65.6 59 10.6 51.1 19.02 0.749
15:11 1011 29.85 840 24.81 18.6 65.5 59 10.6 51.1 18.97 0.747
15:12 1011 29.85 840 24.81 18.6 65.4 62 11.2 52.1 18.92 0.745
15:13 1011 29.85 840 24.81 18.4 65.2 59 10.3 50.5 18.77 0.739
15:14 1011 29.85 840 24.81 18.2 64.7 60 10.4 50.8 18.51 0.729
15:15 1011 29.85 840 24.81 18 64.4 63 11 51.7 18.32 0.721
15:16 1011 29.85 840 24.81 17.9 64.3 61 10.3 50.6 18.27 0.719
15:17 1011 29.85 840 24.81 17.9 64.2 59 9.8 49.6 18.26 0.719
15:18 1011 29.85 840 24.81 17.8 64.1 59 9.8 49.6 18.19 0.716
15:19 1011 29.85 840 24.81 17.7 63.9 56 8.9 48 18.06 0.711
15:20 1011 29.85 840 24.81 17.6 63.6 57 9.2 48.5 17.91 0.705
15:21 1011 29.85 840 24.81 17.4 63.4 57 8.9 48 17.74 0.698
15:22 1011 29.85 840 24.81 17.3 63.1 55 8.1 46.6 17.57 0.692
15:23 1011 29.85 840 24.81 17.2 62.9 56 8.3 47 17.45 0.687
15:24 1011 29.85 840 24.81 17 62.6 55 8 46.4 17.35 0.683
15:25 1011 29.85 840 24.81 16.9 62.4 56 8.3 46.9 17.23 0.678
15:26 1011 29.85 840 24.81 16.8 62.2 57 8.4 47.1 17.06 0.672
15:27 1011 29.85 840 24.81 16.6 61.9 60 8.9 48.1 16.94 0.667
15:28 1011 29.85 840 24.81 16.4 61.6 61 8.9 48 16.8 0.661
15:29 1011 29.85 840 24.81 16.3 61.3 61 9 48.1 16.63 0.655
15:30 1011 29.85 840 24.81 16.2 61.1 62 9 48.3 16.55 0.652
15:31 1011 29.85 840 24.81 16.1 61 61 8.6 47.5 16.4 0.646
15:32 1011 29.85 840 24.81 16 60.8 63 9.1 48.3 16.38 0.645
15:33 1011 29.85 840 24.81 16 60.7 64 9.1 48.5 16.35 0.644
15:34 1011 29.85 840 24.81 15.9 60.6 63 9 48.1 16.27 0.641
15:35 1011 29.85 840 24.81 15.9 60.6 64 9.1 48.4 16.24 0.639
15:36 1011 29.85 840 24.81 15.9 60.5 64 9.1 48.4 16.22 0.639
15:37 1011 29.85 840 24.81 15.8 60.4 63 8.7 47.7 16.13 0.635
15:38 1011 29.85 840 24.81 15.7 60.3 62 8.6 47.4 16.09 0.633
15:39 1011 29.85 841 24.83 15.7 60.2 63 8.7 47.6 16.04 0.631
15:40 1011 29.85 841 24.83 15.6 60 64 8.9 48.1 15.96 0.628
15:41 1012 29.88 841 24.83 15.5 59.9 63 8.6 47.4 15.88 0.625
15:42 1012 29.88 841 24.83 15.5 59.9 64 8.8 47.8 15.88 0.625
15:43 1012 29.88 841 24.83 15.5 59.8 63 8.6 47.4 15.8 0.622
15:44 1012 29.88 841 24.83 15.4 59.7 63 8.5 47.3 15.74 0.62
15:45 1011 29.85 841 24.83 15.3 59.6 66 9 48.2 15.72 0.619
15:46 1011 29.85 841 24.83 15.3 59.5 65 8.7 47.7 15.65 0.616
15:47 1011 29.85 841 24.83 15.2 59.4 64 8.6 47.5 15.6 0.614
15:48 1011 29.85 841 24.83 15.3 59.5 63 8.4 47.2 15.64 0.616
15:49 1012 29.88 841 24.83 15.3 59.5 65 8.8 47.9 15.66 0.617
15:50 1012 29.88 841 24.83 15.3 59.5 62 8.2 46.7 15.65 0.616
15:51 1012 29.88 841 24.83 15.2 59.4 65 8.8 47.8 15.65 0.616
15:52 1012 29.88 841 24.83 15.2 59.4 64 8.5 47.4 15.65 0.616
15:53 1012 29.88 841 24.83 15.2 59.4 65 8.8 47.8 15.56 0.613
15:54 1012 29.88 841 24.83 15.1 59.2 66 9 48.1 15.51 0.611
15:55 1012 29.88 841 24.83 15 58.9 66 8.8 47.8 15.37 0.605
15:56 1012 29.88 841 24.83 14.9 58.7 67 8.8 47.8 15.26 0.601
15:57 1012 29.88 841 24.83 14.7 58.5 68 9 48.3 15.14 0.596
15:58 1012 29.88 841 24.83 14.6 58.3 69 9.1 48.3 15.03 0.592
15:59 1012 29.88 842 24.86 14.5 58.2 69 8.9 48.1 14.92 0.587
16:00 1012 29.88 842 24.86 14.4 58 71 9.3 48.8 14.84 0.584
16:01 1012 29.88 842 24.86 14.3 57.7 74 9.8 49.6 14.69 0.578
16:02 1013 29.91 842 24.86 14.1 57.3 77 10.1 50.1 14.51 0.571
16:03 1013 29.91 842 24.86 13.8 56.8 77 9.9 49.9 14.25 0.561
16:04 1013 29.91 842 24.86 13.6 56.5 79 10 50.1 14.08 0.554
16:05 1013 29.91 842 24.86 13.4 56.2 80 10.2 50.3 13.92 0.548
16:06 1012 29.88 842 24.86 13.3 56 82 10.3 50.6 13.85 0.545
16:07 1013 29.91 842 24.86 13.2 55.8 82 10.3 50.6 13.75 0.541
16:08 1013 29.91 842 24.86 13.2 55.7 83 10.3 50.5 13.67 0.538
16:09 1013 29.91 842 24.86 13.1 55.7 82 10.1 50.2 13.63 0.537
16:10 1013 29.91 842 24.86 13.1 55.7 81 10 49.9 13.58 0.535
16:11 1013 29.91 842 24.86 13.1 55.7 82 10.2 50.4 13.57 0.534
16:12 1013 29.91 842 24.86 13.1 55.6 83 10.4 50.7 13.55 0.533
16:13 1013 29.91 842 24.86 13 55.4 85 10.5 50.9 13.5 0.531
16:14 1013 29.91 842 24.86 13 55.3 83 10.1 50.2 13.43 0.529
16:15 1013 29.91 842 24.86 12.9 55.2 85 10.4 50.8 13.35 0.526
16:16 1013 29.91 842 24.86 12.9 55.2 85 10.5 50.9 13.37 0.526
16:17 1013 29.91 842 24.86 12.8 55.1 86 10.5 50.9 13.3 0.524
16:18 1013 29.91 842 24.86 12.8 55 85 10.4 50.7 13.27 0.522
16:19 1013 29.91 842 24.86 12.8 55 85 10.4 50.7 13.21 0.52
16:20 1013 29.91 842 24.86 12.7 54.8 86 10.4 50.6 13.2 0.52
16:21 1013 29.91 842 24.86 12.7 54.8 86 10.3 50.6 13.13 0.517
16:22 1013 29.91 842 24.86 12.6 54.7 85 10.2 50.4 13.08 0.515
16:23 1013 29.91 842 24.86 12.6 54.6 85 10.1 50.2 13.05 0.514
16:24 1013 29.91 842 24.86 12.6 54.6 85 10.2 50.4 13 0.512
16:25 1013 29.91 842 24.86 12.6 54.6 86 10.2 50.4 12.99 0.511
16:26 1013 29.91 843 24.89 12.5 54.5 86 10.2 50.4 12.93 0.509
16:27 1013 29.91 843 24.89 12.5 54.5 86 10.3 50.5 12.98 0.511
16:28 1013 29.91 843 24.89 12.5 54.5 87 10.4 50.6 12.91 0.508
16:29 1013 29.91 843 24.89 12.5 54.5 87 10.4 50.7 12.93 0.509
16:30 1013 29.91 843 24.89 12.5 54.4 86 10.2 50.3 12.92 0.509
16:31 1013 29.91 842 24.86 12.5 54.5 85 10.1 50.1 12.9 0.508
16:32 1013 29.91 842 24.86 12.6 54.6 84 10 50 12.92 0.509
16:33 1013 29.91 842 24.86 12.6 54.7 86 10.4 50.8 12.92 0.509
16:34 1013 29.91 842 24.86 12.7 54.8 85 10.2 50.3 12.99 0.511
16:35 1013 29.91 842 24.86 12.7 54.9 85 10.3 50.5 13.06 0.514
16:36 1013 29.91 842 24.86 12.7 54.9 87 10.6 51.1 13.09 0.515
16:37 1013 29.91 842 24.86 12.8 55 88 10.9 51.6 13.17 0.519
16:38 1013 29.91 843 24.89 12.8 55.1 89 11 51.8 13.24 0.521
16:39 1013 29.91 843 24.89 12.9 55.2 90 11.2 52.2 13.32 0.524
16:40 1013 29.91 843 24.89 12.9 55.2 90 11.2 52.2 13.33 0.525
16:41 1014 29.94 843 24.89 12.9 55.3 89 11.2 52.2 13.35 0.526
16:42 1014 29.94 843 24.89 12.9 55.2 89 11.2 52.1 13.36 0.526
16:43 1014 29.94 843 24.89 12.9 55.2 90 11.3 52.3 13.34 0.525
16:44 1014 29.94 843 24.89 12.9 55.2 89 11.1 52 13.33 0.525
16:45 1014 29.94 843 24.89 12.9 55.2 89 11.2 52.1 13.29 0.523
16:46 1014 29.94 843 24.89 12.9 55.3 88 11 51.8 13.3 0.524
16:47 1014 29.94 843 24.89 12.9 55.2 89 11.2 52.1 13.27 0.522
16:48 1014 29.94 843 24.89 12.9 55.2 89 11.2 52.1 13.29 0.523
16:49 1014 29.94 843 24.89 12.9 55.1 90 11.2 52.2 13.23 0.521
16:50 1014 29.94 843 24.89 12.9 55.1 90 11.2 52.2 13.29 0.523
16:51 1014 29.94 843 24.89 12.8 55.1 90 11.3 52.4 13.25 0.522
16:52 1014 29.94 843 24.89 12.8 55.1 90 11.2 52.2 13.23 0.521
16:53 1014 29.94 843 24.89 12.8 55 89 11 51.9 13.18 0.519
16:54 1014 29.94 843 24.89 12.8 55 89 11 51.7 13.1 0.516
16:55 1014 29.94 843 24.89 12.8 55 89 11 51.8 13.15 0.518
16:56 1014 29.94 843 24.89 12.8 55 89 11.1 51.9 13.16 0.518
16:57 1014 29.94 843 24.89 12.8 55 89 11 51.8 13.17 0.519
16:58 1013 29.91 843 24.89 12.8 55.1 87 10.8 51.4 13.16 0.518
16:59 1013 29.91 843 24.89 12.8 55.1 88 10.9 51.7 13.16 0.518
17:00 1013 29.91 843 24.89 12.8 55.1 88 10.9 51.6 13.16 0.518
17:01 1013 29.91 843 24.89 12.9 55.1 89 11.1 51.9 13.17 0.519
17:02 1013 29.91 843 24.89 12.9 55.2 88 11 51.8 13.22 0.52
17:03 1013 29.91 843 24.89 12.9 55.2 88 10.9 51.7 13.24 0.521
17:04 1013 29.91 843 24.89 12.9 55.3 89 11.2 52.1 13.25 0.522
17:05 1013 29.91 843 24.89 12.9 55.3 88 11 51.9 13.35 0.526
17:06 1013 29.91 843 24.89 12.9 55.2 88 10.9 51.7 13.28 0.523
17:07 1014 29.94 843 24.89 12.9 55.2 86 10.7 51.2 13.22 0.52
17:08 1014 29.94 843 24.89 12.9 55.2 87 10.8 51.5 13.21 0.52
17:09 1014 29.94 843 24.89 12.9 55.2 87 10.9 51.6 13.25 0.522
17:10 1014 29.94 843 24.89 12.9 55.2 88 11 51.9 13.2 0.52
17:11 1014 29.94 843 24.89 12.8 55.1 88 10.8 51.5 13.19 0.519
17:12 1014 29.94 843 24.89 12.8 55.1 89 11 51.9 13.16 0.518
17:13 1014 29.94 843 24.89 12.8 55 89 11 51.8 13.13 0.517
17:14 1014 29.94 843 24.89 12.7 54.9 90 11.1 52 13.13 0.517
17:15 1013 29.91 843 24.89 12.7 54.9 91 11.2 52.2 13.18 0.519
17:16 1013 29.91 843 24.89 12.8 55 91 11.3 52.3 13.23 0.521
17:17 1014 29.94 843 24.89 12.8 55 90 11.2 52.1 13.19 0.519
17:18 1014 29.94 843 24.89 12.8 55 89 11.1 52 13.19 0.519
17:19 1014 29.94 843 24.89 12.8 55.1 89 11.1 52 13.17 0.519
17:20 1013 29.91 843 24.89 12.8 55 90 11.2 52.1 13.22 0.52
17:21 1013 29.91 843 24.89 12.9 55.1 89 11.1 52 13.24 0.521
17:22 1013 29.91 843 24.89 12.9 55.2 88 11 51.8 13.19 0.519
17:23 1013 29.91 843 24.89 12.9 55.2 88 11 51.8 13.19 0.519
17:24 1014 29.94 843 24.89 12.9 55.2 88 10.9 51.6 13.27 0.522
17:25 1014 29.94 843 24.89 12.9 55.2 88 10.9 51.7 13.24 0.521
17:26 1014 29.94 843 24.89 12.9 55.2 89 11.2 52.1 13.25 0.522
17:27 1014 29.94 843 24.89 12.9 55.2 88 10.9 51.6 13.25 0.522
17:28 1014 29.94 843 24.89 12.9 55.1 88 10.9 51.7 13.2 0.52
17:29 1013 29.91 843 24.89 12.9 55.2 88 11 51.8 13.28 0.523
17:30 1013 29.91 843 24.89 12.9 55.2 88 11.1 51.9 13.32 0.524
17:31 1013 29.91 843 24.89 13 55.3 89 11.2 52.1 13.31 0.524
17:32 1013 29.91 843 24.89 12.9 55.3 88 11 51.7 13.3 0.524
17:33 1013 29.91 843 24.89 12.9 55.3 89 11.1 52.1 13.33 0.525
17:34 1013 29.91 843 24.89 13 55.3 88 11.1 51.9 13.33 0.525
17:35 1014 29.94 843 24.89 13 55.3 89 11.3 52.3 13.36 0.526
17:36 1014 29.94 843 24.89 13 55.4 89 11.2 52.2 13.36 0.526
17:37 1014 29.94 843 24.89 13 55.4 90 11.3 52.4 13.37 0.526
17:38 1014 29.94 843 24.89 13 55.3 90 11.3 52.3 13.4 0.528
17:39 1014 29.94 843 24.89 13 55.4 91 11.5 52.7 13.41 0.528
17:40 1014 29.94 843 24.89 13 55.5 89 11.2 52.2 13.47 0.53
17:41 1014 29.94 843 24.89 13.1 55.6 87 11.1 52 13.49 0.531
17:42 1014 29.94 843 24.89 13.1 55.7 88 11.2 52.1 13.48 0.531
17:43 1014 29.94 843 24.89 13.1 55.6 86 10.9 51.6 13.41 0.528
17:44 1014 29.94 843 24.89 13.2 55.7 85 10.7 51.3 13.45 0.53
17:45 1014 29.94 843 24.89 13.1 55.7 86 10.9 51.6 13.42 0.528
17:46 1014 29.94 843 24.89 13.1 55.5 85 10.7 51.2 13.4 0.528
17:47 1014 29.94 843 24.89 13 55.5 85 10.7 51.2 13.37 0.526
17:48 1014 29.94 843 24.89 13 55.4 86 10.7 51.2 13.33 0.525
17:49 1014 29.94 843 24.89 12.9 55.3 87 10.8 51.4 13.28 0.523
17:50 1014 29.94 843 24.89 12.9 55.1 87 10.7 51.3 13.26 0.522
17:51 1014 29.94 843 24.89 12.8 55 86 10.6 51 13.2 0.52
17:52 1014 29.94 843 24.89 12.8 55 87 10.7 51.3 13.16 0.518
17:53 1014 29.94 843 24.89 12.7 54.9 87 10.6 51.2 13.12 0.517
17:54 1014 29.94 843 24.89 12.7 54.9 88 10.8 51.5 13.12 0.517
17:55 1014 29.94 843 24.89 12.7 54.9 89 10.9 51.6 13.14 0.517
17:56 1014 29.94 843 24.89 12.7 54.9 90 11 51.9 13.1 0.516
17:57 1014 29.94 843 24.89 12.7 54.8 89 10.9 51.6 13.07 0.515
17:58 1014 29.94 843 24.89 12.7 54.8 88 10.8 51.4 13 0.512
17:59 1014 29.94 843 24.89 12.6 54.7 89 10.9 51.7 13.05 0.514
18:00 1014 29.94 843 24.89 12.6 54.6 90 11 51.7 13.05 0.514
18:01 1014 29.94 843 24.89 12.6 54.6 88 10.6 51.1 12.94 0.509
18:02 1014 29.94 843 24.89 12.5 54.6 89 10.8 51.4 12.93 0.509
18:03 1014 29.94 843 24.89 12.5 54.5 89 10.7 51.3 12.93 0.509
18:04 1014 29.94 843 24.89 12.5 54.4 88 10.6 51.1 12.87 0.507
18:05 1014 29.94 843 24.89 12.4 54.4 88 10.5 50.9 12.82 0.505
18:06 1014 29.94 843 24.89 12.4 54.4 89 10.6 51.1 12.78 0.503
18:07 1014 29.94 843 24.89 12.4 54.3 87 10.3 50.5 12.77 0.503
18:08 1014 29.94 843 24.89 12.4 54.3 88 10.4 50.8 12.7 0.5
18:09 1014 29.94 843 24.89 12.4 54.3 88 10.5 50.8 12.75 0.502
18:10 1014 29.94 843 24.89 12.3 54.2 89 10.5 51 12.7 0.5
18:11 1014 29.94 843 24.89 12.3 54.1 89 10.5 50.9 12.67 0.499
18:12 1014 29.94 843 24.89 12.2 54 88 10.4 50.7 12.65 0.498
18:13 1014 29.94 843 24.89 12.2 54 87 10.2 50.3 12.54 0.494
18:14 1014 29.94 843 24.89 12.2 53.9 88 10.3 50.5 12.53 0.493
18:15 1014 29.94 843 24.89 12.1 53.9 89 10.3 50.6 12.52 0.493
18:16 1014 29.94 843 24.89 12.1 53.8 88 10.2 50.3 12.49 0.492
18:17 1014 29.94 843 24.89 12.1 53.7 88 10.1 50.2 12.49 0.492
18:18 1014 29.94 843 24.89 12.1 53.8 88 10.3 50.5 12.44 0.49
18:19 1014 29.94 843 24.89 12.1 53.7 88 10.2 50.4 12.44 0.49
18:20 1014 29.94 843 24.89 12.1 53.7 88 10.1 50.2 12.46 0.491
18:21 1014 29.94 843 24.89 12.1 53.8 89 10.3 50.5 12.49 0.492
18:22 1014 29.94 843 24.89 12.1 53.8 88 10.2 50.3 12.48 0.491
18:23 1014 29.94 843 24.89 12.1 53.7 88 10.2 50.4 12.46 0.491
18:24 1014 29.94 843 24.89 12.1 53.7 87 10.1 50.1 12.44 0.49
18:25 1014 29.94 843 24.89 12.1 53.7 87 10 50.1 12.45 0.49
18:26 1014 29.94 843 24.89 12.1 53.7 88 10.2 50.4 12.43 0.489
18:27 1014 29.94 843 24.89 12 53.7 89 10.2 50.4 12.42 0.489
18:28 1014 29.94 843 24.89 12 53.5 87 10 49.9 12.34 0.486
18:29 1014 29.94 843 24.89 12 53.5 87 9.9 49.8 12.29 0.484
18:30 1014 29.94 843 24.89 11.9 53.4 87 9.8 49.6 12.24 0.482
18:31 1014 29.94 843 24.89 11.8 53.3 86 9.6 49.3 12.15 0.478
18:32 1014 29.94 843 24.89 11.8 53.2 86 9.6 49.3 12.14 0.478
18:33 1014 29.94 843 24.89 11.8 53.2 87 9.7 49.4 12.12 0.477
18:34 1014 29.94 843 24.89 11.7 53.1 88 9.8 49.6 12.15 0.478
18:35 1014 29.94 843 24.89 11.7 53.1 88 9.9 49.8 12.06 0.475
18:36 1014 29.94 843 24.89 11.6 52.9 89 9.8 49.7 12.03 0.474
18:37 1014 29.94 843 24.89 11.6 52.9 89 9.9 49.9 12 0.472
18:38 1014 29.94 843 24.89 11.6 52.9 89 9.9 49.8 11.98 0.472
18:39 1014 29.94 843 24.89 11.6 52.8 89 9.9 49.8 11.98 0.472
18:40 1014 29.94 843 24.89 11.6 52.9 89 9.9 49.8 11.93 0.47
18:41 1014 29.94 843 24.89 11.6 52.8 90 10 49.9 11.98 0.472
18:42 1014 29.94 843 24.89 11.6 52.9 90 10 50 11.99 0.472
18:43 1014 29.94 843 24.89 11.6 52.9 90 10 50 12 0.472
18:44 1014 29.94 843 24.89 11.6 53 90 10.1 50.1 12.02 0.473
18:45 1014 29.94 843 24.89 11.6 53 90 10 50 12.06 0.475
18:46 1014 29.94 843 24.89 11.7 53.1 89 10 50.1 12.08 0.476
18:47 1014 29.94 843 24.89 11.8 53.3 89 10 50 12.18 0.48
18:48 1014 29.94 843 24.89 11.9 53.4 88 9.9 49.8 12.22 0.481
18:49 1014 29.94 843 24.89 11.9 53.4 87 9.8 49.7 12.25 0.482
18:50 1014 29.94 843 24.89 11.9 53.5 88 10.1 50.1 12.28 0.483
18:51 1013 29.91 843 24.89 12 53.6 87 9.9 49.8 12.32 0.485
18:52 1013 29.91 843 24.89 12 53.6 87 10 50 12.4 0.488
18:53 1013 29.91 843 24.89 12 53.6 86 9.8 49.6 12.38 0.487
18:54 1013 29.91 843 24.89 12.1 53.8 86 9.8 49.7 12.41 0.489
18:55 1014 29.94 843 24.89 12.1 53.8 88 10.1 50.3 12.45 0.49
18:56 1013 29.91 843 24.89 12.2 53.9 87 10.1 50.2 12.51 0.493
18:57 1014 29.94 843 24.89 12.2 53.9 87 10.1 50.2 12.51 0.493
18:58 1014 29.94 843 24.89 12.2 53.9 88 10.2 50.3 12.54 0.494
18:59 1014 29.94 843 24.89 12.2 54 87 10.2 50.3 12.56 0.494
19:00 1014 29.94 843 24.89 12.3 54.1 87 10.1 50.2 12.59 0.496
19:01 1014 29.94 843 24.89 12.3 54.1 87 10.2 50.4 12.64 0.498
19:02 1014 29.94 843 24.89 12.3 54.1 86 10 50.1 12.63 0.497
19:03 1014 29.94 843 24.89 12.3 54.1 87 10.2 50.3 12.64 0.498
19:04 1014 29.94 843 24.89 12.3 54.1 87 10.2 50.3 12.67 0.499
19:05 1014 29.94 843 24.89 12.2 54 87 10.2 50.4 12.66 0.498
19:06 1014 29.94 843 24.89 12.3 54.1 87 10.2 50.3 12.67 0.499
19:07 1014 29.94 843 24.89 12.3 54.1 87 10.1 50.2 12.64 0.498
19:08 1014 29.94 843 24.89 12.3 54.2 86 10 50 12.67 0.499
19:09 1013 29.91 843 24.89 12.3 54.2 86 10.1 50.1 12.69 0.5
19:10 1014 29.94 843 24.89 12.3 54.2 86 10.1 50.2 12.71 0.5
19:11 1014 29.94 843 24.89 12.3 54.2 86 10.1 50.2 12.69 0.5
19:12 1014 29.94 843 24.89 12.3 54.1 86 10 49.9 12.68 0.499
19:13 1014 29.94 843 24.89 12.3 54.2 86 10.1 50.3 12.68 0.499
19:14 1014 29.94 843 24.89 12.3 54.1 87 10.1 50.2 12.68 0.499
19:15 1013 29.91 843 24.89 12.3 54.1 86 10.1 50.1 12.71 0.5
19:16 1013 29.91 843 24.89 12.3 54.1 87 10.2 50.4 12.68 0.499
19:17 1013 29.91 843 24.89 12.3 54.1 87 10.3 50.5 12.67 0.499
19:18 1014 29.94 843 24.89 12.2 54 88 10.3 50.5 12.64 0.498
19:19 1014 29.94 843 24.89 12.2 54 87 10.2 50.4 12.63 0.497
19:20 1014 29.94 843 24.89 12.2 54 88 10.3 50.5 12.63 0.497
19:21 1014 29.94 843 24.89 12.2 54 88 10.3 50.5 12.62 0.497
19:22 1014 29.94 843 24.89 12.2 54 87 10.2 50.3 12.61 0.496
19:23 1014 29.94 843 24.89 12.2 54 88 10.3 50.5 12.61 0.496
19:24 1013 29.91 843 24.89 12.2 54 88 10.3 50.5 12.62 0.497
19:25 1013 29.91 843 24.89 12.2 54 87 10.2 50.3 12.58 0.495
19:26 1013 29.91 843 24.89 12.2 54 88 10.2 50.4 12.59 0.496
19:27 1014 29.94 843 24.89 12.3 54.1 88 10.3 50.6 12.63 0.497
19:28 1014 29.94 843 24.89 12.3 54.1 87 10.2 50.4 12.65 0.498
19:29 1014 29.94 843 24.89 12.3 54.2 88 10.3 50.6 12.72 0.501
19:30 1014 29.94 843 24.89 12.3 54.2 88 10.4 50.8 12.75 0.502
19:31 1014 29.94 843 24.89 12.3 54.2 89 10.5 51 12.72 0.501
19:32 1014 29.94 843 24.89 12.4 54.3 89 10.6 51.1 12.81 0.504
19:33 1014 29.94 843 24.89 12.4 54.3 90 10.7 51.3 12.8 0.504
19:34 1014 29.94 843 24.89 12.4 54.4 90 10.8 51.4 12.87 0.507
19:35 1014 29.94 843 24.89 12.5 54.4 90 10.8 51.5 12.91 0.508
19:36 1014 29.94 843 24.89 12.6 54.6 90 10.9 51.6 13.02 0.513
19:37 1014 29.94 843 24.89 12.6 54.7 89 10.9 51.7 13.02 0.513
19:38 1014 29.94 843 24.89 12.7 54.8 90 11 51.9 13.14 0.517
19:39 1014 29.94 843 24.89 12.8 55 88 10.9 51.6 13.2 0.52
19:40 1014 29.94 843 24.89 12.8 55 88 10.9 51.6 13.2 0.52
19:41 1014 29.94 843 24.89 12.9 55.1 87 10.7 51.3 13.28 0.523
19:42 1013 29.91 843 24.89 12.9 55.2 85 10.5 51 13.27 0.522
19:43 1013 29.91 843 24.89 12.9 55.2 85 10.5 50.9 13.28 0.523
19:44 1013 29.91 843 24.89 12.9 55.3 87 10.8 51.5 13.34 0.525
19:45 1013 29.91 843 24.89 13 55.3 87 10.8 51.5 13.35 0.526
19:46 1013 29.91 843 24.89 12.9 55.3 87 10.8 51.4 13.33 0.525
19:47 1013 29.91 843 24.89 13 55.4 84 10.5 50.8 13.34 0.525
19:48 1013 29.91 843 24.89 13 55.4 86 10.7 51.3 13.37 0.526
19:49 1014 29.94 843 24.89 13.1 55.5 85 10.6 51 13.48 0.531
19:50 1014 29.94 843 24.89 13.1 55.6 85 10.7 51.2 13.53 0.533
19:51 1014 29.94 843 24.89 13.1 55.6 87 10.9 51.7 13.58 0.535
19:52 1014 29.94 843 24.89 13.1 55.6 86 10.9 51.6 13.6 0.535
19:53 1014 29.94 843 24.89 13.1 55.6 85 10.7 51.3 13.58 0.535
19:54 1014 29.94 843 24.89 13.1 55.6 85 10.6 51.1 13.54 0.533
19:55 1014 29.94 843 24.89 13.2 55.7 86 10.9 51.6 13.56 0.534
19:56 1014 29.94 843 24.89 13.2 55.7 87 11 51.8 13.6 0.535
19:57 1014 29.94 843 24.89 13.2 55.7 86 11 51.7 13.63 0.537
19:58 1014 29.94 843 24.89 13.1 55.6 85 10.7 51.2 13.5 0.531
19:59 1014 29.94 843 24.89 13.1 55.6 85 10.6 51.1 13.47 0.53
20:00 1014 29.94 843 24.89 13.1 55.5 84 10.5 50.9 13.41 0.528
20:01 1014 29.94 843 24.89 13 55.5 86 10.7 51.3 13.42 0.528
20:02 1014 29.94 843 24.89 13 55.3 84 10.3 50.6 13.39 0.527
20:03 1014 29.94 843 24.89 12.9 55.2 86 10.6 51 13.34 0.525
20:04 1013 29.91 843 24.89 12.9 55.2 84 10.3 50.5 13.2 0.52
20:05 1013 29.91 843 24.89 12.8 55 85 10.3 50.6 13.16 0.518
20:06 1014 29.94 843 24.89 12.8 55 85 10.4 50.8 13.13 0.517
20:07 1014 29.94 843 24.89 12.8 55 85 10.3 50.5 13.1 0.516
20:08 1014 29.94 843 24.89 12.8 55 85 10.2 50.4 13.11 0.516
20:09 1014 29.94 843 24.89 12.8 55 84 10.2 50.4 13.17 0.519
20:10 1014 29.94 843 24.89 12.8 55.1 84 10.3 50.5 13.19 0.519
20:11 1014 29.94 843 24.89 12.8 55.1 84 10.2 50.4 13.18 0.519
20:12 1014 29.94 843 24.89 12.8 55.1 83 10 50 13.13 0.517
20:13 1014 29.94 843 24.89 12.8 55 84 10.1 50.1 13.08 0.515
20:14 1014 29.94 843 24.89 12.7 54.9 85 10.2 50.4 13.09 0.515
20:15 1014 29.94 843 24.89 12.7 54.8 85 10.3 50.5 13.01 0.512
20:16 1014 29.94 843 24.89 12.6 54.7 85 10.3 50.5 12.96 0.51
20:17 1014 29.94 843 24.89 12.6 54.6 85 10.1 50.2 12.92 0.509
20:18 1014 29.94 843 24.89 12.5 54.6 85 10 50.1 12.88 0.507
20:19 1014 29.94 843 24.89 12.5 54.6 85 10 50.1 12.86 0.506
20:20 1014 29.94 843 24.89 12.5 54.6 85 10.1 50.2 12.8 0.504
20:21 1014 29.94 843 24.89 12.5 54.5 85 10.1 50.1 12.82 0.505
20:22 1014 29.94 843 24.89 12.5 54.6 85 10.2 50.3 12.81 0.504
20:23 1014 29.94 843 24.89 12.5 54.5 86 10.2 50.4 12.74 0.502
20:24 1014 29.94 843 24.89 12.4 54.3 87 10.3 50.5 12.71 0.5
20:25 1014 29.94 843 24.89 12.4 54.2 87 10.2 50.4 12.65 0.498
20:26 1014 29.94 843 24.89 12.3 54.1 87 10.3 50.5 12.64 0.498
20:27 1014 29.94 843 24.89 12.3 54.1 88 10.3 50.6 12.61 0.496
20:28 1014 29.94 843 24.89 12.3 54.1 88 10.4 50.6 12.58 0.495
20:29 1014 29.94 843 24.89 12.1 53.9 88 10.3 50.5 12.52 0.493
20:30 1014 29.94 843 24.89 12.1 53.9 88 10.3 50.5 12.46 0.491
20:31 1014 29.94 843 24.89 12.1 53.7 88 10.2 50.3 12.43 0.489
20:32 1014 29.94 843 24.89 12.1 53.7 88 10.1 50.3 12.45 0.49
20:33 1014 29.94 843 24.89 12.1 53.7 88 10.2 50.3 12.39 0.488
20:34 1014 29.94 843 24.89 12 53.6 88 10.1 50.2 12.33 0.485
20:35 1014 29.94 843 24.89 12 53.5 88 10.1 50.1 12.29 0.484
20:36 1013 29.91 843 24.89 11.9 53.4 88 10 50 12.22 0.481
20:37 1013 29.91 843 24.89 11.9 53.3 88 10 50 12.14 0.478
20:38 1014 29.94 843 24.89 11.8 53.3 88 9.9 49.9 12.15 0.478
20:39 1014 29.94 843 24.89 11.8 53.3 88 9.9 49.9 12.16 0.479
20:40 1014 29.94 843 24.89 11.8 53.3 88 9.9 49.8 12.19 0.48
20:41 1014 29.94 843 24.89 11.8 53.2 87 9.8 49.6 12.18 0.48
20:42 1014 29.94 843 24.89 11.9 53.3 88 9.9 49.8 12.15 0.478
20:43 1014 29.94 843 24.89 11.8 53.2 88 9.9 49.7 12.1 0.476
20:44 1013 29.91 843 24.89 11.8 53.2 88 9.9 49.8 12.04 0.474
20:45 1013 29.91 843 24.89 11.7 53 88 9.8 49.7 12 0.472
20:46 1013 29.91 843 24.89 11.6 52.9 89 9.8 49.7 11.99 0.472
20:47 1013 29.91 843 24.89 11.5 52.8 89 9.8 49.6 11.94 0.47
20:48 1013 29.91 843 24.89 11.6 52.8 89 9.8 49.6 11.9 0.469
20:49 1013 29.91 843 24.89 11.5 52.8 89 9.7 49.5 11.89 0.468
20:50 1013 29.91 843 24.89 11.5 52.8 89 9.7 49.5 11.87 0.467
20:51 1013 29.91 843 24.89 11.6 52.8 89 9.8 49.6 11.87 0.467
20:52 1013 29.91 843 24.89 11.5 52.7 89 9.7 49.5 11.88 0.468
20:53 1013 29.91 843 24.89 11.5 52.7 89 9.7 49.5 11.84 0.466
20:54 1013 29.91 843 24.89 11.5 52.7 89 9.7 49.5 11.84 0.466
20:55 1013 29.91 843 24.89 11.5 52.6 89 9.7 49.4 11.8 0.465
20:56 1013 29.91 843 24.89 11.5 52.6 89 9.7 49.4 11.82 0.465
20:57 1013 29.91 843 24.89 11.4 52.6 89 9.7 49.4 11.75 0.463
20:58 1013 29.91 843 24.89 11.4 52.6 89 9.7 49.4 11.72 0.461
20:59 1013 29.91 843 24.89 11.4 52.5 89 9.6 49.3 11.74 0.462
21:00 1013 29.91 843 24.89 11.4 52.5 89 9.6 49.3 11.72 0.461
21:01 1013 29.91 842 24.86 11.4 52.5 88 9.6 49.2 11.76 0.463
21:02 1013 29.91 842 24.86 11.4 52.5 88 9.5 49.2 11.66 0.459
21:03 1013 29.91 842 24.86 11.3 52.3 89 9.5 49.1 11.61 0.457
21:04 1013 29.91 842 24.86 11.2 52.2 89 9.5 49.1 11.54 0.454
21:05 1013 29.91 842 24.86 11.1 52.1 89 9.5 49 11.47 0.452
21:06 1013 29.91 842 24.86 11.1 51.9 90 9.4 49 11.36 0.447
21:07 1013 29.91 842 24.86 11 51.8 90 9.3 48.8 11.32 0.446
21:08 1013 29.91 842 24.86 11 51.7 90 9.4 48.9 11.31 0.445
21:09 1013 29.91 842 24.86 10.9 51.7 90 9.3 48.8 11.29 0.444
21:10 1013 29.91 842 24.86 10.9 51.7 90 9.3 48.7 11.22 0.442
21:11 1013 29.91 842 24.86 10.9 51.6 89 9.2 48.6 11.27 0.444
21:12 1013 29.91 842 24.86 10.9 51.6 89 9.2 48.6 11.23 0.442
21:13 1013 29.91 842 24.86 10.9 51.6 89 9.2 48.6 11.18 0.44
21:14 1013 29.91 842 24.86 10.9 51.6 90 9.2 48.6 11.16 0.439
21:15 1013 29.91 842 24.86 10.8 51.4 90 9.1 48.5 11.14 0.439
21:16 1013 29.91 842 24.86 10.7 51.3 90 9.1 48.4 11.08 0.436
21:17 1013 29.91 842 24.86 10.7 51.2 90 9.1 48.4 10.99 0.433
21:18 1013 29.91 842 24.86 10.6 51 90 9 48.3 10.95 0.431
21:19 1013 29.91 842 24.86 10.5 50.9 91 9 48.3 10.86 0.428
21:20 1013 29.91 842 24.86 10.5 50.9 91 9 48.3 10.8 0.425
21:21 1013 29.91 842 24.86 10.5 50.8 91 9 48.2 10.81 0.426
21:22 1013 29.91 842 24.86 10.4 50.8 91 9 48.3 10.75 0.423
21:23 1013 29.91 842 24.86 10.4 50.7 91 9.1 48.3 10.75 0.423
21:24 1013 29.91 842 24.86 10.4 50.7 91 8.9 48.1 10.75 0.423
21:25 1013 29.91 843 24.89 10.4 50.6 90 8.9 48 10.7 0.421
21:26 1013 29.91 843 24.89 10.3 50.6 91 8.9 48 10.65 0.419
21:27 1013 29.91 843 24.89 10.3 50.6 90 8.8 47.9 10.66 0.42
21:28 1013 29.91 843 24.89 10.3 50.5 90 8.8 47.8 10.63 0.419
21:29 1013 29.91 843 24.89 10.3 50.5 90 8.8 47.8 10.57 0.416
21:30 1013 29.91 843 24.89 10.2 50.4 90 8.7 47.6 10.53 0.415
21:31 1014 29.94 843 24.89 10.1 50.3 91 8.7 47.7 10.48 0.413
21:32 1014 29.94 843 24.89 10.1 50.2 91 8.7 47.6 10.44 0.411
21:33 1014 29.94 843 24.89 10.2 50.3 91 8.7 47.7 10.43 0.411
21:34 1014 29.94 843 24.89 10.1 50.2 90 8.6 47.5 10.45 0.411
21:35 1014 29.94 843 24.89 10.1 50.2 90 8.6 47.5 10.42 0.41
21:36 1014 29.94 843 24.89 10.1 50.1 90 8.5 47.3 10.38 0.409
21:37 1014 29.94 843 24.89 10.1 50.1 90 8.5 47.4 10.38 0.409
21:38 1014 29.94 843 24.89 10.1 50.1 90 8.5 47.3 10.37 0.408
21:39 1014 29.94 843 24.89 10.1 50.1 90 8.5 47.3 10.33 0.407
21:40 1014 29.94 843 24.89 10 50 90 8.4 47.1 10.29 0.405
21:41 1014 29.94 843 24.89 9.9 49.7 91 8.4 47.2 10.22 0.402
21:42 1014 29.94 843 24.89 9.9 49.7 91 8.5 47.3 10.19 0.401
21:43 1014 29.94 843 24.89 9.8 49.7 91 8.5 47.3 10.16 0.4
21:44 1014 29.94 843 24.89 9.8 49.6 92 8.5 47.3 10.17 0.4
21:45 1014 29.94 843 24.89 9.8 49.6 92 8.5 47.3 10.16 0.4
21:46 1014 29.94 843 24.89 9.8 49.7 92 8.6 47.4 10.15 0.4
21:47 1014 29.94 843 24.89 9.8 49.7 92 8.6 47.6 10.14 0.399
21:48 1014 29.94 843 24.89 9.9 49.8 92 8.6 47.5 10.21 0.402
21:49 1014 29.94 843 24.89 10 49.9 92 8.7 47.6 10.2 0.402
21:50 1014 29.94 843 24.89 10 50 91 8.7 47.6 10.22 0.402
21:51 1014 29.94 843 24.89 9.9 49.9 91 8.5 47.4 10.2 0.402
21:52 1014 29.94 843 24.89 9.9 49.8 92 8.6 47.4 10.21 0.402
21:53 1014 29.94 843 24.89 9.8 49.7 91 8.5 47.3 10.17 0.4
21:54 1014 29.94 843 24.89 9.8 49.6 92 8.5 47.4 10.06 0.396
21:55 1014 29.94 843 24.89 9.8 49.6 92 8.6 47.5 10.07 0.396
21:56 1014 29.94 843 24.89 9.8 49.7 93 8.7 47.6 10.09 0.397
21:57 1014 29.94 843 24.89 9.8 49.6 92 8.5 47.4 10.11 0.398
21:58 1014 29.94 843 24.89 9.8 49.6 92 8.5 47.3 10.05 0.396
21:59 1014 29.94 843 24.89 9.7 49.4 93 8.6 47.4 10.05 0.396
22:00 1014 29.94 843 24.89 9.7 49.4 92 8.5 47.3 9.97 0.393
22:01 1014 29.94 843 24.89 9.6 49.3 93 8.5 47.2 9.96 0.392
22:02 1014 29.94 843 24.89 9.5 49.2 93 8.4 47.2 9.86 0.388
22:03 1014 29.94 843 24.89 9.5 49.2 93 8.4 47.2 9.89 0.389
22:04 1014 29.94 843 24.89 9.5 49.2 92 8.4 47.1 9.9 0.39
22:05 1014 29.94 843 24.89 9.6 49.3 93 8.5 47.3 9.91 0.39
22:06 1014 29.94 843 24.89 9.7 49.4 93 8.5 47.3 10 0.394
22:07 1014 29.94 843 24.89 9.7 49.4 92 8.5 47.3 9.98 0.393
22:08 1014 29.94 843 24.89 9.6 49.3 92 8.4 47.1 9.96 0.392
22:09 1014 29.94 843 24.89 9.6 49.3 92 8.3 46.9 9.9 0.39
22:10 1014 29.94 843 24.89 9.5 49.1 92 8.3 46.9 9.86 0.388
22:11 1014 29.94 843 24.89 9.5 49.2 92 8.3 46.9 9.86 0.388
22:12 1014 29.94 843 24.89 9.5 49.1 92 8.2 46.8 9.82 0.387
22:13 1014 29.94 843 24.89 9.5 49.1 92 8.2 46.8 9.82 0.387
22:14 1014 29.94 843 24.89 9.6 49.2 91 8.2 46.8 9.82 0.387
22:15 1014 29.94 843 24.89 9.5 49.1 91 8.1 46.6 9.76 0.384
22:16 1014 29.94 843 24.89 9.5 49 91 8.1 46.5 9.74 0.383
22:17 1014 29.94 843 24.89 9.4 48.9 91 8 46.4 9.7 0.382
22:18 1014 29.94 843 24.89 9.4 48.8 91 8 46.4 9.65 0.38
22:19 1014 29.94 843 24.89 9.3 48.8 91 8 46.4 9.6 0.378
22:20 1014 29.94 843 24.89 9.3 48.7 92 8 46.4 9.64 0.38
22:21 1014 29.94 843 24.89 9.3 48.8 92 8 46.4 9.68 0.381
22:22 1014 29.94 843 24.89 9.4 48.9 91 8 46.4 9.71 0.382
22:23 1014 29.94 843 24.89 9.4 49 91 8.1 46.5 9.69 0.381
22:24 1014 29.94 843 24.89 9.5 49 91 8.1 46.6 9.78 0.385
22:25 1014 29.94 843 24.89 9.5 49.2 91 8.2 46.8 9.86 0.388
22:26 1014 29.94 843 24.89 9.6 49.3 91 8.3 46.9 9.91 0.39
22:27 1014 29.94 843 24.89 9.6 49.3 92 8.4 47.1 9.95 0.392
22:28 1014 29.94 843 24.89 9.7 49.4 92 8.5 47.2 9.99 0.393
22:29 1014 29.94 843 24.89 9.6 49.4 93 8.5 47.3 9.96 0.392
22:30 1014 29.94 843 24.89 9.7 49.4 93 8.5 47.3 9.99 0.393
22:31 1014 29.94 843 24.89 9.6 49.3 93 8.5 47.3 9.97 0.393
22:32 1014 29.94 843 24.89 9.6 49.3 93 8.5 47.3 10 0.394
22:33 1014 29.94 843 24.89 9.7 49.4 93 8.5 47.4 10.05 0.396
22:34 1014 29.94 843 24.89 9.7 49.5 92 8.6 47.4 10.07 0.396
22:35 1014 29.94 843 24.89 9.8 49.6 92 8.5 47.4 10.1 0.398
22:36 1014 29.94 843 24.89 9.8 49.7 91 8.5 47.3 10.14 0.399
22:37 1014 29.94 843 24.89 9.9 49.8 91 8.4 47.2 10.2 0.402
22:38 1014 29.94 843 24.89 10 49.9 90 8.4 47.1 10.21 0.402
22:39 1014 29.94 843 24.89 10 50.1 89 8.3 47 10.29 0.405
22:40 1014 29.94 843 24.89 10.1 50.3 88 8.2 46.8 10.34 0.407
22:41 1014 29.94 843 24.89 10.2 50.4 87 8.2 46.8 10.41 0.41
22:42 1014 29.94 843 24.89 10.3 50.5 88 8.3 46.9 10.44 0.411
22:43 1014 29.94 843 24.89 10.2 50.4 88 8.3 46.9 10.45 0.411
22:44 1014 29.94 843 24.89 10.2 50.3 88 8.2 46.8 10.37 0.408
22:45 1014 29.94 843 24.89 10.1 50.2 88 8.2 46.7 10.31 0.406
22:46 1014 29.94 843 24.89 10.2 50.4 87 8.1 46.6 10.36 0.408
22:47 1014 29.94 843 24.89 10.3 50.6 86 8 46.5 10.44 0.411
22:48 1014 29.94 843 24.89 10.4 50.7 85 8 46.4 10.52 0.414
22:49 1014 29.94 843 24.89 10.5 50.8 85 8 46.4 10.5 0.413
22:50 1014 29.94 843 24.89 10.4 50.7 85 7.9 46.3 10.49 0.413
22:51 1014 29.94 843 24.89 10.4 50.6 85 7.9 46.3 10.49 0.413
22:52 1014 29.94 843 24.89 10.3 50.6 85 8 46.3 10.49 0.413
22:53 1014 29.94 843 24.89 10.3 50.5 85 7.9 46.3 10.51 0.414
22:54 1014 29.94 843 24.89 10.3 50.5 85 7.9 46.2 10.47 0.412
22:55 1014 29.94 843 24.89 10.3 50.5 85 7.9 46.3 10.45 0.411
22:56 1014 29.94 843 24.89 10.2 50.4 85 7.9 46.2 10.48 0.413
22:57 1014 29.94 843 24.89 10.2 50.3 85 7.8 46 10.42 0.41
22:58 1014 29.94 843 24.89 10.2 50.4 85 7.7 45.9 10.46 0.412
22:59 1014 29.94 843 24.89 10.2 50.4 85 7.8 46 10.46 0.412
23:00 1014 29.94 843 24.89 10.2 50.3 85 7.7 45.9 10.41 0.41
23:01 1014 29.94 843 24.89 10.1 50.1 85 7.7 45.9 10.36 0.408
23:02 1014 29.94 843 24.89 10.1 50.1 85 7.7 45.9 10.26 0.404
23:03 1014 29.94 843 24.89 9.9 49.9 86 7.7 45.9 10.21 0.402
23:04 1014 29.94 843 24.89 9.8 49.7 86 7.7 45.8 10.14 0.399
23:05 1014 29.94 843 24.89 9.7 49.5 87 7.6 45.7 10.05 0.396
23:06 1014 29.94 843 24.89 9.6 49.3 87 7.5 45.5 9.92 0.391
23:07 1014 29.94 843 24.89 9.5 49 88 7.5 45.5 9.73 0.383
23:08 1014 29.94 843 24.89 9.3 48.7 88 7.5 45.4 9.61 0.378
23:09 1014 29.94 843 24.89 9.2 48.6 89 7.4 45.4 9.58 0.377
23:10 1014 29.94 843 24.89 9.1 48.4 89 7.4 45.3 9.48 0.373
23:11 1014 29.94 843 24.89 9.1 48.3 89 7.3 45.2 9.41 0.37
23:12 1014 29.94 843 24.89 9 48.2 89 7.3 45.1 9.34 0.368
23:13 1014 29.94 843 24.89 9 48.3 89 7.4 45.3 9.38 0.369
23:14 1014 29.94 843 24.89 9.1 48.3 89 7.4 45.3 9.36 0.369
23:15 1014 29.94 843 24.89 9.1 48.3 90 7.4 45.4 9.34 0.368
23:16 1014 29.94 843 24.89 9.1 48.4 90 7.5 45.5 9.41 0.37
23:17 1014 29.94 843 24.89 9.1 48.4 90 7.5 45.5 9.41 0.37
23:18 1014 29.94 843 24.89 9.2 48.5 90 7.6 45.7 9.49 0.374
23:19 1014 29.94 843 24.89 9.2 48.5 90 7.6 45.7 9.5 0.374
23:20 1013 29.91 843 24.89 9.1 48.5 91 7.7 45.9 9.45 0.372
23:21 1013 29.91 843 24.89 9.1 48.4 91 7.7 45.9 9.43 0.371
23:22 1013 29.91 843 24.89 9.1 48.3 91 7.7 45.9 9.41 0.37
23:23 1013 29.91 843 24.89 9.1 48.4 92 7.8 46.1 9.45 0.372
23:24 1013 29.91 843 24.89 9.1 48.4 92 7.8 46.1 9.51 0.374
23:25 1013 29.91 843 24.89 9.1 48.4 92 7.8 46.1 9.47 0.373
23:26 1013 29.91 843 24.89 9.2 48.5 91 7.8 46.1 9.5 0.374
23:27 1013 29.91 843 24.89 9.1 48.4 92 7.8 46.1 9.5 0.374
23:28 1013 29.91 843 24.89 9.1 48.4 91 7.8 46 9.48 0.373
23:29 1013 29.91 843 24.89 9.1 48.4 91 7.7 45.8 9.45 0.372
23:30 1013 29.91 843 24.89 9.1 48.3 91 7.7 45.9 9.4 0.37
23:31 1013 29.91 843 24.89 9 48.3 92 7.8 46 9.35 0.368
23:32 1014 29.94 843 24.89 9 48.2 91 7.7 45.8 9.33 0.367
23:33 1014 29.94 843 24.89 8.9 48.1 91 7.6 45.7 9.29 0.366
23:34 1014 29.94 843 24.89 8.9 48 91 7.6 45.6 9.27 0.365
23:35 1014 29.94 843 24.89 8.8 47.8 89 7.1 44.7 9.14 0.36
23:36 1014 29.94 843 24.89 8.7 47.6 91 7.2 44.9 8.95 0.352
23:37 1014 29.94 843 24.89 8.6 47.5 91 7.2 45 8.91 0.351
23:38 1014 29.94 843 24.89 8.6 47.5 91 7.2 45 8.93 0.352
23:39 1014 29.94 843 24.89 8.6 47.6 91 7.3 45.1 8.98 0.354
23:40 1014 29.94 843 24.89 8.7 47.7 90 7.3 45.1 9.15 0.36
23:41 1014 29.94 843 24.89 8.8 47.9 89 7.2 44.9 9.22 0.363
23:42 1014 29.94 843 24.89 8.9 48.1 88 7.1 44.8 9.29 0.366
23:43 1014 29.94 843 24.89 8.9 48.1 88 7 44.6 9.25 0.364
23:44 1014 29.94 843 24.89 9 48.1 87 7 44.6 9.21 0.363
23:45 1014 29.94 843 24.89 8.9 48 87 6.9 44.4 9.16 0.361
23:46 1014 29.94 843 24.89 8.9 47.9 87 6.9 44.4 9.16 0.361
23:47 1014 29.94 843 24.89 8.8 47.9 87 6.8 44.3 9.1 0.358
23:48 1014 29.94 843 24.89 8.8 47.9 88 6.9 44.5 9.04 0.356
23:49 1014 29.94 843 24.89 8.8 47.8 88 6.9 44.5 9.07 0.357
23:50 1014 29.94 843 24.89 8.8 47.8 88 6.9 44.4 9.05 0.356
23:51 1014 29.94 843 24.89 8.8 47.8 88 7 44.5 9.13 0.359
23:52 1014 29.94 843 24.89 8.8 47.9 88 6.9 44.4 9.21 0.363
23:53 1014 29.94 843 24.89 9 48.2 88 7.2 44.9 9.39 0.37
23:54 1014 29.94 843 24.89 9.2 48.5 86 7 44.7 9.54 0.376
23:55 1014 29.94 843 24.89 9.4 48.9 85 7 44.6 9.7 0.382
23:56 1014 29.94 843 24.89 9.6 49.2 84 7 44.5 9.86 0.388
23:57 1014 29.94 843 24.89 9.6 49.3 84 7.1 44.8 9.84 0.387
23:58 1014 29.94 843 24.89 9.6 49.2 84 7 44.5 9.89 0.389
23:59 1014 29.94 843 24.89 9.6 49.3 84 7.1 44.7 9.89 0.389
24:00 1014 29.94 843 24.89 9.6 49.3 83 6.9 44.5 9.79 0.385